EDW84 LSZH-FACT
Flight info
| Callsign | EDW84 |
|---|---|
| Flight time | 10h 14m |
| Altitude | 33000 |
| Route | VEBIT T53 GERSA DCT SOSON DCT ODINA DCT PIDAD DCT TALEP DCT VAREK DCT ERPIN DCT ETOIL DCT CIRTA UM2 CSO UM998 ENBUT DCT EBIMU UG727 BZ DCT KSA UT943 VEDRY UN185 OKLOK UQ23 DUMDO DCT ERDAS ERDAS1B |
| Aircraft | A343/H-SDE2E3FGHIJ4J5M1RWXY/LB1D1 |
Departure
| Time | 2026-04-26 22:49 |
|---|---|
| Airport | Zürich Airport (LSZH) |
Arrival
| Time | 2026-04-27 09:04 |
|---|---|
| Airport | Cape Town International Airport (FACT) |
| Time | Latitude | Longitude | Altitude | Speed | Heading |
|---|---|---|---|---|---|
| 2026-04-26 22:26 | 47.46186 | 8.55397 | 1401 ft | 0 kts | 186° |
| 2026-04-26 22:39 | 47.46204 | 8.55399 | 1408 ft | 4 kts | 176° |
| 2026-04-26 22:40 | 47.46230 | 8.55391 | 1405 ft | 4 kts | 156° |
| 2026-04-26 22:40 | 47.46253 | 8.55371 | 1410 ft | 4 kts | 134° |
| 2026-04-26 22:40 | 47.46267 | 8.55340 | 1409 ft | 4 kts | 101° |
| 2026-04-26 22:40 | 47.46268 | 8.55326 | 1409 ft | 0 kts | 96° |
| 2026-04-26 22:44 | 47.46268 | 8.55328 | 1409 ft | 1 kts | 96° |
| 2026-04-26 22:44 | 47.46266 | 8.55356 | 1409 ft | 5 kts | 96° |
| 2026-04-26 22:44 | 47.46261 | 8.55427 | 1407 ft | 10 kts | 96° |
| 2026-04-26 22:45 | 47.46251 | 8.55556 | 1410 ft | 16 kts | 96° |
| 2026-04-26 22:45 | 47.46238 | 8.55738 | 1405 ft | 18 kts | 96° |
| 2026-04-26 22:45 | 47.46227 | 8.55912 | 1413 ft | 16 kts | 96° |
| 2026-04-26 22:45 | 47.46179 | 8.56036 | 1417 ft | 13 kts | 136° |
| 2026-04-26 22:46 | 47.46118 | 8.56120 | 1420 ft | 12 kts | 137° |
| 2026-04-26 22:46 | 47.46050 | 8.56218 | 1421 ft | 15 kts | 127° |
| 2026-04-26 22:46 | 47.46072 | 8.56342 | 1419 ft | 12 kts | 41° |
| 2026-04-26 22:46 | 47.46127 | 8.56408 | 1421 ft | 6 kts | 11° |
| 2026-04-26 22:47 | 47.46166 | 8.56391 | 1422 ft | 6 kts | 332° |
| 2026-04-26 22:47 | 47.46198 | 8.56353 | 1419 ft | 0 kts | 317° |
| 2026-04-26 22:48 | 47.46278 | 8.56244 | 1417 ft | 44 kts | 317° |
| 2026-04-26 22:48 | 47.46652 | 8.55731 | 1409 ft | 101 kts | 317° |
| 2026-04-26 22:48 | 47.47289 | 8.54864 | 1401 ft | 147 kts | 317° |
| 2026-04-26 22:49 | 47.48130 | 8.53717 | 1474 ft | 176 kts | 318° |
| 2026-04-26 22:49 | 47.49025 | 8.52456 | 1973 ft | 181 kts | 317° |
| 2026-04-26 22:49 | 47.49963 | 8.51289 | 2519 ft | 173 kts | 316° |
| 2026-04-26 22:49 | 47.50588 | 8.49751 | 2868 ft | 181 kts | 290° |
| 2026-04-26 22:50 | 47.50836 | 8.47898 | 3118 ft | 191 kts | 279° |
| 2026-04-26 22:50 | 47.51025 | 8.45900 | 3420 ft | 200 kts | 279° |
| 2026-04-26 22:50 | 47.51254 | 8.43834 | 3756 ft | 207 kts | 279° |
| 2026-04-26 22:50 | 47.51375 | 8.41662 | 4069 ft | 217 kts | 272° |
| 2026-04-26 22:51 | 47.50971 | 8.39489 | 4277 ft | 228 kts | 232° |
| 2026-04-26 22:51 | 47.49679 | 8.38087 | 4450 ft | 240 kts | 195° |
| 2026-04-26 22:51 | 47.48037 | 8.37468 | 4757 ft | 254 kts | 189° |
| 2026-04-26 22:51 | 47.46293 | 8.36766 | 5189 ft | 264 kts | 197° |
| 2026-04-26 22:52 | 47.44503 | 8.36114 | 5719 ft | 269 kts | 185° |
| 2026-04-26 22:52 | 47.42608 | 8.36201 | 6182 ft | 277 kts | 171° |
| 2026-04-26 22:52 | 47.40695 | 8.36812 | 6726 ft | 282 kts | 163° |
| 2026-04-26 22:52 | 47.38818 | 8.37695 | 7270 ft | 287 kts | 160° |
| 2026-04-26 22:53 | 47.36930 | 8.38718 | 7794 ft | 291 kts | 159° |
| 2026-04-26 22:53 | 47.35769 | 8.39369 | 8144 ft | 294 kts | 159° |
| 2026-04-26 22:54 | 47.33965 | 8.40378 | 8676 ft | 296 kts | 160° |
| 2026-04-26 22:54 | 47.33355 | 8.40714 | 8855 ft | 297 kts | 160° |
| 2026-04-26 22:54 | 47.33231 | 8.40782 | 8896 ft | 297 kts | 160° |
| 2026-04-26 22:55 | 47.31279 | 8.41837 | 9460 ft | 300 kts | 161° |
| 2026-04-26 22:55 | 47.29319 | 8.42864 | 9997 ft | 304 kts | 161° |
| 2026-04-26 22:55 | 47.27310 | 8.43896 | 10442 ft | 310 kts | 162° |
| 2026-04-26 22:55 | 47.25789 | 8.44693 | 10602 ft | 319 kts | 159° |
| 2026-04-26 22:56 | 47.25642 | 8.44780 | 10614 ft | 320 kts | 159° |
| 2026-04-26 22:56 | 47.23565 | 8.46123 | 10850 ft | 332 kts | 156° |
| 2026-04-26 22:56 | 47.22793 | 8.46656 | 10927 ft | 337 kts | 155° |
| 2026-04-26 22:56 | 47.22136 | 8.47120 | 11001 ft | 341 kts | 155° |
| 2026-04-26 22:57 | 47.20810 | 8.48079 | 11161 ft | 348 kts | 154° |
| 2026-04-26 22:58 | 47.18759 | 8.49599 | 11356 ft | 359 kts | 154° |
| 2026-04-26 22:58 | 47.16413 | 8.50978 | 11583 ft | 369 kts | 166° |
| 2026-04-26 22:58 | 47.13912 | 8.51752 | 11918 ft | 375 kts | 172° |
| 2026-04-26 22:58 | 47.11312 | 8.52291 | 12346 ft | 380 kts | 175° |
| 2026-04-26 22:59 | 47.08655 | 8.52698 | 12809 ft | 384 kts | 176° |
| 2026-04-26 22:59 | 47.05983 | 8.53045 | 13293 ft | 388 kts | 176° |
| 2026-04-26 22:59 | 47.03283 | 8.53384 | 13769 ft | 391 kts | 176° |
| 2026-04-26 22:59 | 47.00564 | 8.53739 | 14213 ft | 395 kts | 176° |
| 2026-04-26 23:00 | 46.97845 | 8.54105 | 14538 ft | 401 kts | 176° |
| 2026-04-26 23:00 | 46.95041 | 8.54493 | 14861 ft | 407 kts | 176° |
| 2026-04-26 23:00 | 46.92207 | 8.54895 | 15274 ft | 411 kts | 176° |
| 2026-04-26 23:00 | 46.89346 | 8.55298 | 15689 ft | 415 kts | 176° |
| 2026-04-26 23:01 | 46.86464 | 8.55716 | 16094 ft | 418 kts | 176° |
| 2026-04-26 23:01 | 46.83563 | 8.56122 | 16536 ft | 420 kts | 176° |
| 2026-04-26 23:01 | 46.80641 | 8.56527 | 16941 ft | 423 kts | 176° |
| 2026-04-26 23:01 | 46.77696 | 8.56945 | 17348 ft | 427 kts | 176° |
| 2026-04-26 23:02 | 46.74774 | 8.57364 | 17819 ft | 429 kts | 175° |
| 2026-04-26 23:02 | 46.71800 | 8.57804 | 18251 ft | 431 kts | 175° |
| 2026-04-26 23:02 | 46.68801 | 8.58229 | 18619 ft | 435 kts | 176° |
| 2026-04-26 23:02 | 46.65775 | 8.58660 | 18948 ft | 438 kts | 175° |
| 2026-04-26 23:03 | 46.62736 | 8.59083 | 19388 ft | 438 kts | 176° |
| 2026-04-26 23:03 | 46.59700 | 8.59510 | 19812 ft | 440 kts | 175° |
| 2026-04-26 23:03 | 46.56639 | 8.59958 | 20163 ft | 443 kts | 175° |
| 2026-04-26 23:03 | 46.53568 | 8.60407 | 20500 ft | 446 kts | 175° |
| 2026-04-26 23:04 | 46.50471 | 8.60863 | 20870 ft | 448 kts | 175° |
| 2026-04-26 23:04 | 46.47405 | 8.61293 | 21187 ft | 451 kts | 176° |
| 2026-04-26 23:04 | 46.44273 | 8.61728 | 21544 ft | 453 kts | 176° |
| 2026-04-26 23:04 | 46.41540 | 8.62114 | 21822 ft | 455 kts | 176° |
| 2026-04-26 23:05 | 46.41393 | 8.62135 | 21848 ft | 455 kts | 176° |
| 2026-04-26 23:05 | 46.38237 | 8.62582 | 22163 ft | 457 kts | 176° |
| 2026-04-26 23:06 | 46.35054 | 8.63031 | 22434 ft | 461 kts | 176° |
| 2026-04-26 23:06 | 46.35031 | 8.63034 | 22437 ft | 461 kts | 176° |
| 2026-04-26 23:06 | 46.33278 | 8.63275 | 22662 ft | 461 kts | 176° |
| 2026-04-26 23:06 | 46.30079 | 8.63723 | 23015 ft | 463 kts | 176° |
| 2026-04-26 23:07 | 46.26860 | 8.64178 | 23296 ft | 466 kts | 176° |
| 2026-04-26 23:07 | 46.23626 | 8.64624 | 23603 ft | 469 kts | 176° |
| 2026-04-26 23:07 | 46.20381 | 8.65063 | 23839 ft | 472 kts | 176° |
| 2026-04-26 23:07 | 46.17153 | 8.65522 | 24135 ft | 472 kts | 176° |
| 2026-04-26 23:08 | 46.13879 | 8.65991 | 24340 ft | 475 kts | 176° |
| 2026-04-26 23:08 | 46.10588 | 8.66460 | 24610 ft | 476 kts | 176° |
| 2026-04-26 23:08 | 46.07285 | 8.66834 | 24862 ft | 477 kts | 179° |
| 2026-04-26 23:08 | 46.03968 | 8.66954 | 25116 ft | 478 kts | 181° |
| 2026-04-26 23:09 | 46.00626 | 8.66952 | 25342 ft | 480 kts | 181° |
| 2026-04-26 23:09 | 45.98832 | 8.66934 | 25472 ft | 481 kts | 182° |
| 2026-04-26 23:09 | 45.97549 | 8.66917 | 25567 ft | 481 kts | 182° |
| 2026-04-26 23:09 | 45.94194 | 8.66890 | 25823 ft | 483 kts | 181° |
| 2026-04-26 23:10 | 45.90831 | 8.66900 | 26068 ft | 484 kts | 181° |
| 2026-04-26 23:10 | 45.87468 | 8.66940 | 26294 ft | 486 kts | 180° |
| 2026-04-26 23:10 | 45.84076 | 8.66998 | 26521 ft | 488 kts | 180° |
| 2026-04-26 23:10 | 45.82230 | 8.67033 | 26652 ft | 488 kts | 180° |
| 2026-04-26 23:11 | 45.79504 | 8.67084 | 26867 ft | 489 kts | 180° |
| 2026-04-26 23:11 | 45.76100 | 8.67149 | 27091 ft | 490 kts | 180° |
| 2026-04-26 23:12 | 45.72693 | 8.67216 | 27298 ft | 491 kts | 180° |
| 2026-04-26 23:12 | 45.69264 | 8.67305 | 27515 ft | 493 kts | 180° |
| 2026-04-26 23:12 | 45.68109 | 8.67331 | 27583 ft | 493 kts | 180° |
| 2026-04-26 23:12 | 45.64673 | 8.67403 | 27795 ft | 495 kts | 180° |
| 2026-04-26 23:13 | 45.61223 | 8.67470 | 28005 ft | 496 kts | 180° |
| 2026-04-26 23:13 | 45.57771 | 8.67536 | 28203 ft | 497 kts | 180° |
| 2026-04-26 23:13 | 45.54350 | 8.67601 | 28396 ft | 499 kts | 180° |
| 2026-04-26 23:13 | 45.50873 | 8.67668 | 28589 ft | 500 kts | 180° |
| 2026-04-26 23:14 | 45.47389 | 8.67736 | 28779 ft | 501 kts | 180° |
| 2026-04-26 23:14 | 45.43898 | 8.67804 | 28961 ft | 503 kts | 180° |
| 2026-04-26 23:14 | 45.40396 | 8.67875 | 29149 ft | 503 kts | 180° |
| 2026-04-26 23:14 | 45.36899 | 8.67932 | 29357 ft | 504 kts | 180° |
| 2026-04-26 23:15 | 45.33390 | 8.67983 | 29529 ft | 505 kts | 180° |
| 2026-04-26 23:15 | 45.29871 | 8.68049 | 29701 ft | 506 kts | 180° |
| 2026-04-26 23:15 | 45.26346 | 8.68124 | 29877 ft | 507 kts | 180° |
| 2026-04-26 23:15 | 45.22865 | 8.68200 | 30022 ft | 508 kts | 180° |
| 2026-04-26 23:16 | 45.19321 | 8.68275 | 30193 ft | 509 kts | 180° |
| 2026-04-26 23:16 | 45.12237 | 8.68418 | 30251 ft | 509 kts | 180° |
| 2026-04-26 23:17 | 45.09240 | 8.68476 | 30255 ft | 509 kts | 180° |
| 2026-04-26 23:17 | 45.08855 | 8.68484 | 30259 ft | 509 kts | 180° |
| 2026-04-26 23:18 | 45.01796 | 8.68612 | 30251 ft | 507 kts | 180° |
| 2026-04-26 23:18 | 44.94748 | 8.68745 | 30446 ft | 503 kts | 180° |
| 2026-04-26 23:18 | 44.91282 | 8.68815 | 30980 ft | 496 kts | 180° |
| 2026-04-26 23:19 | 44.87841 | 8.68884 | 31354 ft | 490 kts | 180° |
| 2026-04-26 23:19 | 44.84461 | 8.68952 | 31878 ft | 482 kts | 181° |
| 2026-04-26 23:19 | 44.81176 | 8.69017 | 32350 ft | 475 kts | 181° |
| 2026-04-26 23:19 | 44.77879 | 8.69075 | 32560 ft | 474 kts | 181° |
| 2026-04-26 23:20 | 44.74578 | 8.69135 | 32705 ft | 475 kts | 181° |
| 2026-04-26 23:20 | 44.71274 | 8.69200 | 32870 ft | 475 kts | 181° |
| 2026-04-26 23:20 | 44.67968 | 8.69264 | 33026 ft | 474 kts | 181° |
| 2026-04-26 23:20 | 44.64669 | 8.69327 | 33150 ft | 474 kts | 181° |
| 2026-04-26 23:21 | 44.61398 | 8.69391 | 33155 ft | 466 kts | 181° |
| 2026-04-26 23:21 | 44.54994 | 8.69513 | 33159 ft | 462 kts | 181° |
| 2026-04-26 23:22 | 44.48568 | 8.69633 | 33153 ft | 462 kts | 181° |
| 2026-04-26 23:22 | 44.42104 | 8.69753 | 33166 ft | 468 kts | 181° |
| 2026-04-26 23:23 | 44.35548 | 8.69875 | 33164 ft | 474 kts | 181° |
| 2026-04-26 23:23 | 44.28910 | 8.69998 | 33171 ft | 480 kts | 181° |
| 2026-04-26 23:24 | 44.22232 | 8.70123 | 33167 ft | 486 kts | 181° |
| 2026-04-26 23:24 | 44.15434 | 8.70219 | 33168 ft | 490 kts | 181° |
| 2026-04-26 23:25 | 44.08624 | 8.70356 | 33153 ft | 489 kts | 180° |
| 2026-04-26 23:25 | 44.01843 | 8.70514 | 33167 ft | 487 kts | 181° |
| 2026-04-26 23:26 | 43.97130 | 8.70604 | 33163 ft | 486 kts | 181° |
| 2026-04-26 23:27 | 43.91753 | 8.70699 | 33161 ft | 486 kts | 181° |
| 2026-04-26 23:27 | 43.85031 | 8.70823 | 33168 ft | 486 kts | 181° |
| 2026-04-26 23:28 | 43.78281 | 8.70927 | 33170 ft | 485 kts | 181° |
| 2026-04-26 23:28 | 43.71528 | 8.71046 | 33171 ft | 485 kts | 181° |
| 2026-04-26 23:29 | 43.64783 | 8.71181 | 33174 ft | 484 kts | 181° |
| 2026-04-26 23:29 | 43.58049 | 8.71273 | 33173 ft | 484 kts | 182° |
| 2026-04-26 23:30 | 43.51367 | 8.71248 | 33174 ft | 483 kts | 183° |
| 2026-04-26 23:30 | 43.44769 | 8.69876 | 33176 ft | 478 kts | 199° |
| 2026-04-26 23:31 | 43.38635 | 8.66435 | 33174 ft | 476 kts | 206° |
| 2026-04-26 23:31 | 43.32639 | 8.62533 | 33173 ft | 477 kts | 207° |
| 2026-04-26 23:32 | 43.26703 | 8.58619 | 33171 ft | 476 kts | 207° |
| 2026-04-26 23:32 | 43.20728 | 8.54731 | 33172 ft | 475 kts | 207° |
| 2026-04-26 23:33 | 43.14747 | 8.50878 | 33170 ft | 475 kts | 207° |
| 2026-04-26 23:33 | 43.08552 | 8.47691 | 33170 ft | 478 kts | 195° |
| 2026-04-26 23:34 | 43.01897 | 8.47026 | 33169 ft | 484 kts | 176° |
| 2026-04-26 23:34 | 42.95251 | 8.48189 | 33171 ft | 486 kts | 174° |
| 2026-04-26 23:35 | 42.88569 | 8.49646 | 33165 ft | 487 kts | 173° |
| 2026-04-26 23:35 | 42.81877 | 8.51098 | 33170 ft | 487 kts | 174° |
| 2026-04-26 23:36 | 42.75189 | 8.52498 | 33170 ft | 487 kts | 174° |
| 2026-04-26 23:36 | 42.68530 | 8.53868 | 33156 ft | 487 kts | 174° |
| 2026-04-26 23:37 | 42.61824 | 8.55240 | 33165 ft | 488 kts | 174° |
| 2026-04-26 23:37 | 42.55116 | 8.56612 | 33158 ft | 488 kts | 174° |
| 2026-04-26 23:38 | 42.48402 | 8.57984 | 33162 ft | 488 kts | 174° |
| 2026-04-26 23:38 | 42.41741 | 8.59343 | 33159 ft | 488 kts | 174° |
| 2026-04-26 23:39 | 42.35039 | 8.60707 | 33161 ft | 487 kts | 174° |
| 2026-04-26 23:39 | 42.28326 | 8.62068 | 33161 ft | 487 kts | 174° |
| 2026-04-26 23:40 | 42.21604 | 8.63430 | 33174 ft | 489 kts | 174° |
| 2026-04-26 23:40 | 42.14929 | 8.64780 | 33174 ft | 489 kts | 174° |
| 2026-04-26 23:41 | 42.08204 | 8.66137 | 33184 ft | 489 kts | 174° |
| 2026-04-26 23:41 | 42.01476 | 8.67491 | 33192 ft | 489 kts | 174° |
| 2026-04-26 23:42 | 41.94733 | 8.68846 | 33179 ft | 490 kts | 174° |
| 2026-04-26 23:42 | 41.84672 | 8.70861 | 33186 ft | 490 kts | 173° |
| 2026-04-26 23:43 | 41.77928 | 8.72208 | 33183 ft | 490 kts | 173° |
| 2026-04-26 23:43 | 41.71175 | 8.73554 | 33178 ft | 491 kts | 173° |
| 2026-04-26 23:44 | 41.64463 | 8.74889 | 33163 ft | 491 kts | 173° |
| 2026-04-26 23:44 | 41.57703 | 8.76232 | 33165 ft | 492 kts | 173° |
| 2026-04-26 23:45 | 41.50931 | 8.77574 | 33163 ft | 492 kts | 173° |
| 2026-04-26 23:45 | 41.44159 | 8.78912 | 33170 ft | 492 kts | 173° |
| 2026-04-26 23:46 | 41.37438 | 8.80238 | 33171 ft | 492 kts | 173° |
| 2026-04-26 23:46 | 41.30657 | 8.81573 | 33167 ft | 492 kts | 173° |
| 2026-04-26 23:47 | 41.23884 | 8.82903 | 33168 ft | 492 kts | 173° |
| 2026-04-26 23:47 | 41.17104 | 8.84232 | 33167 ft | 492 kts | 173° |
| 2026-04-26 23:48 | 41.10324 | 8.85559 | 33166 ft | 493 kts | 173° |
| 2026-04-26 23:48 | 41.03590 | 8.86873 | 33175 ft | 493 kts | 173° |
| 2026-04-26 23:49 | 40.96803 | 8.88195 | 33175 ft | 493 kts | 173° |
| 2026-04-26 23:49 | 40.90024 | 8.89513 | 33180 ft | 492 kts | 173° |
| 2026-04-26 23:50 | 40.83244 | 8.90828 | 33184 ft | 492 kts | 173° |
| 2026-04-26 23:50 | 40.76508 | 8.92127 | 33179 ft | 492 kts | 173° |
| 2026-04-26 23:51 | 40.69722 | 8.93416 | 33178 ft | 492 kts | 172° |
| 2026-04-26 23:51 | 40.62948 | 8.94734 | 33187 ft | 492 kts | 172° |
| 2026-04-26 23:52 | 40.56173 | 8.96050 | 33193 ft | 492 kts | 172° |
| 2026-04-26 23:52 | 40.49391 | 8.97357 | 33192 ft | 492 kts | 172° |
| 2026-04-26 23:53 | 40.42656 | 8.98647 | 33193 ft | 492 kts | 172° |
| 2026-04-26 23:53 | 40.35881 | 8.99943 | 33190 ft | 492 kts | 172° |
| 2026-04-26 23:54 | 40.29104 | 9.01236 | 33195 ft | 492 kts | 172° |
| 2026-04-26 23:54 | 40.22323 | 9.02527 | 33193 ft | 492 kts | 172° |
| 2026-04-26 23:55 | 40.15589 | 9.03807 | 33197 ft | 492 kts | 172° |
| 2026-04-26 23:55 | 40.08811 | 9.05092 | 33190 ft | 492 kts | 172° |
| 2026-04-26 23:56 | 40.02033 | 9.06376 | 33197 ft | 492 kts | 172° |
| 2026-04-26 23:56 | 39.95258 | 9.07656 | 33197 ft | 492 kts | 172° |
| 2026-04-26 23:57 | 39.88529 | 9.08926 | 33194 ft | 492 kts | 172° |
| 2026-04-26 23:57 | 39.81755 | 9.10184 | 33197 ft | 491 kts | 173° |
| 2026-04-26 23:58 | 39.74987 | 9.11461 | 33193 ft | 492 kts | 173° |
| 2026-04-26 23:58 | 39.68217 | 9.12738 | 33199 ft | 492 kts | 173° |
| 2026-04-26 23:59 | 39.61494 | 9.13998 | 33197 ft | 491 kts | 173° |
| 2026-04-26 23:59 | 39.54730 | 9.15261 | 33192 ft | 491 kts | 173° |
| 2026-04-27 00:00 | 39.47974 | 9.16520 | 33198 ft | 491 kts | 173° |
| 2026-04-27 00:00 | 39.41209 | 9.17779 | 33195 ft | 491 kts | 173° |
| 2026-04-27 00:01 | 39.34458 | 9.19026 | 33181 ft | 490 kts | 173° |
| 2026-04-27 00:01 | 39.27764 | 9.20267 | 33181 ft | 489 kts | 173° |
| 2026-04-27 00:02 | 39.21026 | 9.21516 | 33175 ft | 489 kts | 174° |
| 2026-04-27 00:02 | 39.14291 | 9.22745 | 33183 ft | 488 kts | 174° |
| 2026-04-27 00:03 | 39.07562 | 9.23978 | 33181 ft | 488 kts | 174° |
| 2026-04-27 00:03 | 39.00881 | 9.25218 | 33178 ft | 488 kts | 174° |
| 2026-04-27 00:04 | 38.94157 | 9.26452 | 33177 ft | 488 kts | 175° |
| 2026-04-27 00:04 | 38.87420 | 9.27670 | 33173 ft | 489 kts | 175° |
| 2026-04-27 00:05 | 38.80688 | 9.28911 | 33170 ft | 489 kts | 174° |
| 2026-04-27 00:05 | 38.73996 | 9.30140 | 33164 ft | 489 kts | 176° |
| 2026-04-27 00:06 | 38.67263 | 9.31362 | 33169 ft | 489 kts | 176° |
| 2026-04-27 00:06 | 38.60528 | 9.32588 | 33167 ft | 489 kts | 176° |
| 2026-04-27 00:07 | 38.53791 | 9.33813 | 33162 ft | 489 kts | 176° |
| 2026-04-27 00:07 | 38.47103 | 9.35026 | 33161 ft | 487 kts | 176° |
| 2026-04-27 00:08 | 38.40402 | 9.36238 | 33162 ft | 486 kts | 176° |
| 2026-04-27 00:08 | 38.33700 | 9.37445 | 33159 ft | 486 kts | 176° |
| 2026-04-27 00:09 | 38.27002 | 9.38650 | 33144 ft | 486 kts | 177° |
| 2026-04-27 00:09 | 38.20326 | 9.39816 | 33154 ft | 483 kts | 177° |
| 2026-04-27 00:10 | 38.13718 | 9.41012 | 33154 ft | 483 kts | 177° |
| 2026-04-27 00:10 | 38.07058 | 9.42222 | 33151 ft | 483 kts | 177° |
| 2026-04-27 00:11 | 38.00407 | 9.43417 | 33151 ft | 483 kts | 177° |
| 2026-04-27 00:11 | 37.93750 | 9.44605 | 33151 ft | 483 kts | 177° |
| 2026-04-27 00:12 | 37.87140 | 9.45781 | 33146 ft | 483 kts | 177° |
| 2026-04-27 00:12 | 37.80481 | 9.46963 | 33133 ft | 484 kts | 177° |
| 2026-04-27 00:13 | 37.73793 | 9.48149 | 33141 ft | 485 kts | 177° |
| 2026-04-27 00:13 | 37.67103 | 9.49335 | 33141 ft | 485 kts | 177° |
| 2026-04-27 00:14 | 37.60460 | 9.50510 | 33137 ft | 485 kts | 177° |
| 2026-04-27 00:14 | 37.53770 | 9.51691 | 33138 ft | 485 kts | 178° |
| 2026-04-27 00:15 | 37.47086 | 9.52868 | 33136 ft | 485 kts | 178° |
| 2026-04-27 00:15 | 37.40401 | 9.54042 | 33139 ft | 485 kts | 178° |
| 2026-04-27 00:16 | 37.33719 | 9.55215 | 33139 ft | 485 kts | 178° |
| 2026-04-27 00:16 | 37.27084 | 9.56378 | 33138 ft | 484 kts | 178° |
| 2026-04-27 00:17 | 37.20424 | 9.57543 | 33136 ft | 483 kts | 178° |
| 2026-04-27 00:17 | 37.13761 | 9.58705 | 33133 ft | 483 kts | 178° |
| 2026-04-27 00:18 | 37.07098 | 9.59865 | 33127 ft | 483 kts | 178° |
| 2026-04-27 00:18 | 37.00428 | 9.61024 | 33136 ft | 484 kts | 178° |
| 2026-04-27 00:19 | 36.93801 | 9.62174 | 33141 ft | 484 kts | 178° |
| 2026-04-27 00:19 | 36.87128 | 9.63331 | 33144 ft | 484 kts | 178° |
| 2026-04-27 00:20 | 36.80451 | 9.64487 | 33143 ft | 485 kts | 178° |
| 2026-04-27 00:20 | 36.73751 | 9.65642 | 33142 ft | 486 kts | 178° |
| 2026-04-27 00:21 | 36.67097 | 9.66790 | 33144 ft | 486 kts | 178° |
| 2026-04-27 00:21 | 36.60388 | 9.67946 | 33140 ft | 487 kts | 178° |
| 2026-04-27 00:22 | 36.53675 | 9.69099 | 33149 ft | 488 kts | 178° |
| 2026-04-27 00:22 | 36.46946 | 9.70253 | 33158 ft | 488 kts | 178° |
| 2026-04-27 00:23 | 36.40263 | 9.71397 | 33139 ft | 488 kts | 178° |
| 2026-04-27 00:23 | 36.33536 | 9.72546 | 33135 ft | 488 kts | 178° |
| 2026-04-27 00:24 | 36.26789 | 9.73697 | 33155 ft | 490 kts | 178° |
| 2026-04-27 00:24 | 36.20037 | 9.74848 | 33155 ft | 490 kts | 178° |
| 2026-04-27 00:25 | 36.13333 | 9.75988 | 33148 ft | 490 kts | 178° |
| 2026-04-27 00:25 | 36.06577 | 9.77134 | 33141 ft | 490 kts | 177° |
| 2026-04-27 00:26 | 35.99811 | 9.78281 | 33152 ft | 491 kts | 177° |
| 2026-04-27 00:26 | 35.93046 | 9.79425 | 33153 ft | 491 kts | 177° |
| 2026-04-27 00:27 | 35.86321 | 9.80559 | 33151 ft | 491 kts | 177° |
| 2026-04-27 00:27 | 35.79552 | 9.81699 | 33153 ft | 491 kts | 177° |
| 2026-04-27 00:28 | 35.72781 | 9.82840 | 33155 ft | 491 kts | 177° |
| 2026-04-27 00:28 | 35.66011 | 9.83978 | 33150 ft | 491 kts | 177° |
| 2026-04-27 00:29 | 35.59279 | 9.85106 | 33152 ft | 492 kts | 177° |
| 2026-04-27 00:29 | 35.52504 | 9.86240 | 33147 ft | 492 kts | 177° |
| 2026-04-27 00:30 | 35.45724 | 9.87373 | 33150 ft | 492 kts | 177° |
| 2026-04-27 00:30 | 35.38946 | 9.88504 | 33150 ft | 492 kts | 177° |
| 2026-04-27 00:31 | 35.32215 | 9.89626 | 33144 ft | 491 kts | 176° |
| 2026-04-27 00:31 | 35.25451 | 9.90751 | 33149 ft | 490 kts | 176° |
| 2026-04-27 00:32 | 35.18689 | 9.91873 | 33147 ft | 490 kts | 176° |
| 2026-04-27 00:32 | 35.11926 | 9.92993 | 33146 ft | 490 kts | 176° |
| 2026-04-27 00:33 | 35.05220 | 9.94103 | 33143 ft | 489 kts | 176° |
| 2026-04-27 00:33 | 34.98482 | 9.95216 | 33148 ft | 488 kts | 176° |
| 2026-04-27 00:34 | 34.91752 | 9.96326 | 33147 ft | 488 kts | 176° |
| 2026-04-27 00:34 | 34.85017 | 9.97434 | 33144 ft | 488 kts | 176° |
| 2026-04-27 00:35 | 34.78334 | 9.98533 | 33135 ft | 487 kts | 176° |
| 2026-04-27 00:35 | 34.71624 | 9.99634 | 33136 ft | 486 kts | 176° |
| 2026-04-27 00:36 | 34.64911 | 10.00733 | 33138 ft | 487 kts | 176° |
| 2026-04-27 00:36 | 34.58203 | 10.01829 | 33127 ft | 487 kts | 176° |
| 2026-04-27 00:37 | 34.51533 | 10.02918 | 33127 ft | 487 kts | 177° |
| 2026-04-27 00:37 | 34.44814 | 10.04013 | 33131 ft | 487 kts | 177° |
| 2026-04-27 00:38 | 34.38091 | 10.05107 | 33118 ft | 487 kts | 177° |
| 2026-04-27 00:38 | 34.31370 | 10.06199 | 33105 ft | 487 kts | 177° |
| 2026-04-27 00:39 | 34.24686 | 10.07283 | 33119 ft | 488 kts | 177° |
| 2026-04-27 00:39 | 34.17951 | 10.08374 | 33111 ft | 488 kts | 177° |
| 2026-04-27 00:40 | 34.11214 | 10.09463 | 33106 ft | 488 kts | 177° |
| 2026-04-27 00:40 | 34.04477 | 10.10551 | 33099 ft | 488 kts | 177° |
| 2026-04-27 00:41 | 33.97787 | 10.11630 | 33101 ft | 488 kts | 177° |
| 2026-04-27 00:41 | 33.91057 | 10.12712 | 33102 ft | 488 kts | 177° |
| 2026-04-27 00:42 | 33.84325 | 10.13794 | 33094 ft | 488 kts | 177° |
| 2026-04-27 00:42 | 33.77592 | 10.14874 | 33087 ft | 488 kts | 178° |
| 2026-04-27 00:43 | 33.70918 | 10.15943 | 33082 ft | 487 kts | 178° |
| 2026-04-27 00:43 | 33.64203 | 10.17017 | 33083 ft | 487 kts | 178° |
| 2026-04-27 00:44 | 33.57486 | 10.18089 | 33085 ft | 487 kts | 178° |
| 2026-04-27 00:44 | 33.50775 | 10.19159 | 33085 ft | 486 kts | 178° |
| 2026-04-27 00:45 | 33.44118 | 10.20220 | 33088 ft | 485 kts | 178° |
| 2026-04-27 00:45 | 33.37433 | 10.21283 | 33090 ft | 484 kts | 178° |
| 2026-04-27 00:46 | 33.30966 | 10.22308 | 33080 ft | 483 kts | 178° |
| 2026-04-27 00:46 | 33.24297 | 10.23363 | 33074 ft | 484 kts | 178° |
| 2026-04-27 00:47 | 33.17599 | 10.24421 | 33080 ft | 486 kts | 178° |
| 2026-04-27 00:47 | 33.10947 | 10.25472 | 33079 ft | 486 kts | 178° |
| 2026-04-27 00:48 | 33.04247 | 10.26529 | 33076 ft | 486 kts | 178° |
| 2026-04-27 00:48 | 32.97544 | 10.27584 | 33075 ft | 486 kts | 178° |
| 2026-04-27 00:49 | 32.90841 | 10.28639 | 33079 ft | 486 kts | 178° |
| 2026-04-27 00:49 | 32.84184 | 10.29684 | 33079 ft | 486 kts | 178° |
| 2026-04-27 00:50 | 32.74131 | 10.31259 | 33073 ft | 486 kts | 178° |
| 2026-04-27 00:51 | 32.67429 | 10.32306 | 33073 ft | 486 kts | 178° |
| 2026-04-27 00:51 | 32.60729 | 10.33352 | 33066 ft | 485 kts | 178° |
| 2026-04-27 00:52 | 32.54075 | 10.34390 | 33067 ft | 485 kts | 178° |
| 2026-04-27 00:52 | 32.47382 | 10.35432 | 33065 ft | 486 kts | 178° |
| 2026-04-27 00:53 | 32.40697 | 10.36472 | 33054 ft | 484 kts | 179° |
| 2026-04-27 00:53 | 32.34027 | 10.37507 | 33057 ft | 483 kts | 179° |
| 2026-04-27 00:54 | 32.27408 | 10.38532 | 33048 ft | 483 kts | 179° |
| 2026-04-27 00:54 | 32.20724 | 10.39566 | 33048 ft | 483 kts | 179° |
| 2026-04-27 00:55 | 32.14107 | 10.40588 | 33048 ft | 483 kts | 179° |
| 2026-04-27 00:55 | 32.07446 | 10.41616 | 33045 ft | 483 kts | 179° |
| 2026-04-27 00:56 | 32.00782 | 10.42643 | 33048 ft | 483 kts | 179° |
| 2026-04-27 00:56 | 31.94120 | 10.43668 | 33044 ft | 483 kts | 179° |
| 2026-04-27 00:57 | 31.87456 | 10.44690 | 33037 ft | 484 kts | 179° |
| 2026-04-27 00:57 | 31.80811 | 10.45707 | 33042 ft | 485 kts | 179° |
| 2026-04-27 00:58 | 31.77342 | 10.46239 | 33039 ft | 485 kts | 179° |
| 2026-04-27 00:58 | 31.74874 | 10.46618 | 33028 ft | 485 kts | 179° |
| 2026-04-27 00:59 | 31.68235 | 10.47635 | 33030 ft | 479 kts | 179° |
| 2026-04-27 00:59 | 31.61673 | 10.48644 | 33033 ft | 477 kts | 179° |
| 2026-04-27 01:00 | 31.55058 | 10.49643 | 33033 ft | 484 kts | 179° |
| 2026-04-27 01:00 | 31.48390 | 10.50658 | 33029 ft | 482 kts | 179° |
| 2026-04-27 01:01 | 31.41754 | 10.51669 | 33030 ft | 485 kts | 179° |
| 2026-04-27 01:01 | 31.35039 | 10.52687 | 33021 ft | 487 kts | 180° |
| 2026-04-27 01:02 | 31.28293 | 10.53710 | 33019 ft | 490 kts | 180° |
| 2026-04-27 01:02 | 31.21575 | 10.54728 | 33018 ft | 490 kts | 180° |
| 2026-04-27 01:03 | 31.14810 | 10.55753 | 33017 ft | 490 kts | 180° |
| 2026-04-27 01:03 | 31.08050 | 10.56775 | 33003 ft | 490 kts | 180° |
| 2026-04-27 01:04 | 31.01285 | 10.57796 | 33026 ft | 491 kts | 180° |
| 2026-04-27 01:04 | 30.95640 | 10.58644 | 33023 ft | 493 kts | 180° |
| 2026-04-27 01:05 | 30.87727 | 10.59834 | 33024 ft | 493 kts | 180° |
| 2026-04-27 01:05 | 30.80913 | 10.60858 | 33023 ft | 493 kts | 180° |
| 2026-04-27 01:06 | 30.74106 | 10.61879 | 33024 ft | 494 kts | 180° |
| 2026-04-27 01:06 | 30.68434 | 10.62728 | 33023 ft | 494 kts | 180° |
| 2026-04-27 01:07 | 30.60501 | 10.63914 | 33021 ft | 494 kts | 180° |
| 2026-04-27 01:07 | 30.54828 | 10.64761 | 33021 ft | 494 kts | 180° |
| 2026-04-27 01:08 | 30.48003 | 10.65779 | 33019 ft | 495 kts | 180° |
| 2026-04-27 01:08 | 30.41174 | 10.66795 | 33020 ft | 495 kts | 180° |
| 2026-04-27 01:09 | 30.34336 | 10.67811 | 33020 ft | 495 kts | 180° |
| 2026-04-27 01:09 | 30.27498 | 10.68826 | 33015 ft | 495 kts | 180° |
| 2026-04-27 01:10 | 30.20712 | 10.69833 | 33018 ft | 495 kts | 180° |
| 2026-04-27 01:10 | 30.13872 | 10.70846 | 33012 ft | 495 kts | 180° |
| 2026-04-27 01:11 | 30.07043 | 10.71856 | 33014 ft | 495 kts | 180° |
| 2026-04-27 01:11 | 30.00207 | 10.72865 | 33020 ft | 495 kts | 180° |
| 2026-04-27 01:12 | 29.93414 | 10.73866 | 33018 ft | 496 kts | 180° |
| 2026-04-27 01:12 | 29.86565 | 10.74873 | 33024 ft | 497 kts | 180° |
| 2026-04-27 01:13 | 29.79700 | 10.75883 | 33028 ft | 497 kts | 180° |
| 2026-04-27 01:13 | 29.72840 | 10.76892 | 33030 ft | 497 kts | 180° |
| 2026-04-27 01:14 | 29.65982 | 10.77897 | 33018 ft | 497 kts | 180° |
| 2026-04-27 01:14 | 29.59402 | 10.78860 | 33035 ft | 498 kts | 180° |
| 2026-04-27 01:15 | 29.52573 | 10.79859 | 33037 ft | 498 kts | 180° |
| 2026-04-27 01:15 | 29.45704 | 10.80863 | 33040 ft | 498 kts | 180° |
| 2026-04-27 01:16 | 29.38828 | 10.81866 | 33040 ft | 498 kts | 180° |
| 2026-04-27 01:16 | 29.31936 | 10.82868 | 33046 ft | 502 kts | 180° |
| 2026-04-27 01:17 | 29.24994 | 10.83875 | 33046 ft | 503 kts | 180° |
| 2026-04-27 01:17 | 29.18095 | 10.84880 | 33047 ft | 503 kts | 180° |
| 2026-04-27 01:18 | 29.11148 | 10.85889 | 33054 ft | 503 kts | 180° |
| 2026-04-27 01:18 | 29.04189 | 10.86896 | 33055 ft | 505 kts | 180° |
| 2026-04-27 01:19 | 28.97212 | 10.87905 | 33059 ft | 506 kts | 180° |
| 2026-04-27 01:19 | 28.90270 | 10.88909 | 33059 ft | 506 kts | 180° |
| 2026-04-27 01:20 | 28.83285 | 10.89917 | 33055 ft | 506 kts | 180° |
| 2026-04-27 01:20 | 28.76297 | 10.90924 | 33052 ft | 507 kts | 180° |
| 2026-04-27 01:21 | 28.69299 | 10.91930 | 33053 ft | 507 kts | 180° |
| 2026-04-27 01:21 | 28.62343 | 10.92929 | 33051 ft | 507 kts | 180° |
| 2026-04-27 01:22 | 28.55343 | 10.93935 | 33050 ft | 507 kts | 180° |
| 2026-04-27 01:22 | 28.48348 | 10.94938 | 33043 ft | 506 kts | 181° |
| 2026-04-27 01:23 | 28.41362 | 10.95938 | 33040 ft | 505 kts | 181° |
| 2026-04-27 01:23 | 28.34432 | 10.96928 | 33040 ft | 505 kts | 181° |
| 2026-04-27 01:24 | 28.27451 | 10.97923 | 33035 ft | 506 kts | 181° |
| 2026-04-27 01:24 | 28.20470 | 10.98918 | 33022 ft | 506 kts | 181° |
| 2026-04-27 01:25 | 28.13473 | 10.99912 | 33029 ft | 508 kts | 181° |
| 2026-04-27 01:25 | 28.06506 | 11.00903 | 33023 ft | 508 kts | 181° |
| 2026-04-27 01:26 | 27.99488 | 11.01901 | 33030 ft | 508 kts | 181° |
| 2026-04-27 01:26 | 27.92477 | 11.02896 | 33007 ft | 508 kts | 181° |
| 2026-04-27 01:27 | 27.85454 | 11.03889 | 33023 ft | 510 kts | 181° |
| 2026-04-27 01:27 | 27.78461 | 11.04877 | 33018 ft | 510 kts | 181° |
| 2026-04-27 01:28 | 27.71421 | 11.05872 | 33017 ft | 510 kts | 181° |
| 2026-04-27 01:28 | 27.64380 | 11.06866 | 33015 ft | 510 kts | 181° |
| 2026-04-27 01:29 | 27.57340 | 11.07858 | 33014 ft | 511 kts | 181° |
| 2026-04-27 01:29 | 27.50316 | 11.08846 | 33018 ft | 512 kts | 181° |
| 2026-04-27 01:30 | 27.43235 | 11.09841 | 33017 ft | 513 kts | 181° |
| 2026-04-27 01:30 | 27.36160 | 11.10835 | 33013 ft | 512 kts | 181° |
| 2026-04-27 01:31 | 27.29085 | 11.11827 | 33017 ft | 512 kts | 181° |
| 2026-04-27 01:31 | 27.22059 | 11.12810 | 33011 ft | 512 kts | 181° |
| 2026-04-27 01:32 | 27.14982 | 11.13799 | 33011 ft | 512 kts | 181° |
| 2026-04-27 01:32 | 27.07912 | 11.14786 | 33012 ft | 512 kts | 181° |
| 2026-04-27 01:33 | 27.00839 | 11.15773 | 32998 ft | 512 kts | 181° |
| 2026-04-27 01:33 | 26.93743 | 11.16759 | 33012 ft | 514 kts | 181° |
| 2026-04-27 01:34 | 26.86693 | 11.17740 | 33014 ft | 514 kts | 182° |
| 2026-04-27 01:34 | 26.79591 | 11.18727 | 33012 ft | 514 kts | 181° |
| 2026-04-27 01:35 | 26.72488 | 11.19713 | 32989 ft | 514 kts | 182° |
| 2026-04-27 01:35 | 26.65367 | 11.20698 | 33018 ft | 517 kts | 182° |
| 2026-04-27 01:36 | 26.58258 | 11.21680 | 33016 ft | 518 kts | 182° |
| 2026-04-27 01:36 | 26.51103 | 11.22670 | 33023 ft | 518 kts | 182° |
| 2026-04-27 01:37 | 26.43945 | 11.23659 | 33027 ft | 518 kts | 182° |
| 2026-04-27 01:37 | 26.36788 | 11.24647 | 33025 ft | 519 kts | 182° |
| 2026-04-27 01:38 | 26.29670 | 11.25626 | 33024 ft | 519 kts | 182° |
| 2026-04-27 01:38 | 26.22506 | 11.26611 | 33023 ft | 519 kts | 182° |
| 2026-04-27 01:39 | 26.15339 | 11.27596 | 33025 ft | 519 kts | 182° |
| 2026-04-27 01:39 | 26.08175 | 11.28580 | 33021 ft | 518 kts | 182° |
| 2026-04-27 01:40 | 26.01068 | 11.29555 | 33029 ft | 518 kts | 182° |
| 2026-04-27 01:40 | 25.93917 | 11.30534 | 33030 ft | 518 kts | 182° |
| 2026-04-27 01:41 | 25.86766 | 11.31511 | 33039 ft | 518 kts | 182° |
| 2026-04-27 01:41 | 25.79612 | 11.32486 | 33029 ft | 518 kts | 182° |
| 2026-04-27 01:42 | 25.72517 | 11.33454 | 33041 ft | 517 kts | 182° |
| 2026-04-27 01:42 | 25.65385 | 11.34425 | 33045 ft | 516 kts | 182° |
| 2026-04-27 01:43 | 25.58253 | 11.35394 | 33046 ft | 516 kts | 182° |
| 2026-04-27 01:43 | 25.51115 | 11.36364 | 33048 ft | 516 kts | 182° |
| 2026-04-27 01:44 | 25.43986 | 11.37331 | 33050 ft | 517 kts | 182° |
| 2026-04-27 01:44 | 25.36890 | 11.38295 | 33047 ft | 517 kts | 182° |
| 2026-04-27 01:45 | 25.29756 | 11.39260 | 33053 ft | 517 kts | 182° |
| 2026-04-27 01:45 | 25.22617 | 11.40224 | 33050 ft | 517 kts | 182° |
| 2026-04-27 01:46 | 25.15481 | 11.41188 | 33049 ft | 517 kts | 182° |
| 2026-04-27 01:46 | 25.08341 | 11.42150 | 33046 ft | 517 kts | 182° |
| 2026-04-27 01:47 | 25.01241 | 11.43107 | 33048 ft | 517 kts | 182° |
| 2026-04-27 01:47 | 24.94099 | 11.44068 | 33045 ft | 517 kts | 182° |
| 2026-04-27 01:48 | 24.86954 | 11.45029 | 33037 ft | 517 kts | 182° |
| 2026-04-27 01:48 | 24.79798 | 11.45988 | 33056 ft | 519 kts | 182° |
| 2026-04-27 01:49 | 24.72678 | 11.46943 | 33056 ft | 519 kts | 182° |
| 2026-04-27 01:49 | 24.65511 | 11.47903 | 33056 ft | 519 kts | 182° |
| 2026-04-27 01:50 | 24.58343 | 11.48865 | 33055 ft | 519 kts | 182° |
| 2026-04-27 01:50 | 24.51183 | 11.49820 | 33061 ft | 519 kts | 182° |
| 2026-04-27 01:51 | 24.44050 | 11.50772 | 33052 ft | 520 kts | 182° |
| 2026-04-27 01:51 | 24.36867 | 11.51730 | 33052 ft | 520 kts | 182° |
| 2026-04-27 01:52 | 24.29692 | 11.52686 | 33058 ft | 520 kts | 182° |
| 2026-04-27 01:52 | 24.22514 | 11.53641 | 33058 ft | 520 kts | 182° |
| 2026-04-27 01:53 | 24.15332 | 11.54596 | 33059 ft | 520 kts | 182° |
| 2026-04-27 01:53 | 24.08200 | 11.55543 | 33058 ft | 520 kts | 182° |
| 2026-04-27 01:54 | 24.01023 | 11.56495 | 33056 ft | 520 kts | 182° |
| 2026-04-27 01:54 | 23.93843 | 11.57444 | 33039 ft | 520 kts | 182° |
| 2026-04-27 01:55 | 23.86664 | 11.58394 | 33058 ft | 520 kts | 182° |
| 2026-04-27 01:55 | 23.79529 | 11.59337 | 33059 ft | 520 kts | 182° |
| 2026-04-27 01:56 | 23.68753 | 11.60760 | 33061 ft | 520 kts | 182° |
| 2026-04-27 01:56 | 23.61571 | 11.61706 | 33040 ft | 520 kts | 181° |
| 2026-04-27 01:57 | 23.54402 | 11.62651 | 33063 ft | 519 kts | 181° |
| 2026-04-27 01:57 | 23.47290 | 11.63586 | 33059 ft | 518 kts | 181° |
| 2026-04-27 01:58 | 23.40125 | 11.64526 | 33062 ft | 518 kts | 181° |
| 2026-04-27 01:58 | 23.32962 | 11.65466 | 33063 ft | 518 kts | 181° |
| 2026-04-27 01:59 | 23.25797 | 11.66405 | 33064 ft | 519 kts | 181° |
| 2026-04-27 01:59 | 23.18684 | 11.67336 | 33066 ft | 518 kts | 181° |
| 2026-04-27 02:00 | 23.11519 | 11.68274 | 33063 ft | 519 kts | 181° |
| 2026-04-27 02:00 | 23.04350 | 11.69210 | 33038 ft | 519 kts | 181° |
| 2026-04-27 02:01 | 22.97177 | 11.70145 | 33040 ft | 519 kts | 181° |
| 2026-04-27 02:01 | 22.90009 | 11.71079 | 33043 ft | 519 kts | 181° |
| 2026-04-27 02:02 | 22.82887 | 11.72008 | 33043 ft | 519 kts | 181° |
| 2026-04-27 02:02 | 22.75721 | 11.72940 | 33032 ft | 519 kts | 181° |
| 2026-04-27 02:03 | 22.68554 | 11.73872 | 33032 ft | 519 kts | 181° |
| 2026-04-27 02:03 | 22.61379 | 11.74802 | 33027 ft | 519 kts | 181° |
| 2026-04-27 02:04 | 22.54258 | 11.75725 | 33020 ft | 519 kts | 181° |
| 2026-04-27 02:04 | 22.47084 | 11.76654 | 33022 ft | 519 kts | 181° |
| 2026-04-27 02:05 | 22.39915 | 11.77583 | 33019 ft | 519 kts | 181° |
| 2026-04-27 02:05 | 22.32748 | 11.78509 | 33013 ft | 519 kts | 180° |
| 2026-04-27 02:06 | 22.25629 | 11.79429 | 33013 ft | 518 kts | 180° |
| 2026-04-27 02:06 | 22.18464 | 11.80353 | 33014 ft | 518 kts | 180° |
| 2026-04-27 02:07 | 22.11300 | 11.81276 | 33003 ft | 518 kts | 180° |
| 2026-04-27 02:07 | 22.04138 | 11.82198 | 33002 ft | 518 kts | 180° |
| 2026-04-27 02:08 | 21.97031 | 11.83112 | 32998 ft | 518 kts | 180° |
| 2026-04-27 02:08 | 21.89875 | 11.84032 | 32998 ft | 518 kts | 180° |
| 2026-04-27 02:09 | 21.82718 | 11.84950 | 32988 ft | 518 kts | 180° |
| 2026-04-27 02:09 | 21.75567 | 11.85867 | 32979 ft | 518 kts | 180° |
| 2026-04-27 02:10 | 21.68461 | 11.86777 | 32972 ft | 518 kts | 180° |
| 2026-04-27 02:10 | 21.61302 | 11.87693 | 32976 ft | 518 kts | 180° |
| 2026-04-27 02:11 | 21.54151 | 11.88607 | 32975 ft | 518 kts | 180° |
| 2026-04-27 02:11 | 21.46988 | 11.89522 | 32969 ft | 518 kts | 180° |
| 2026-04-27 02:12 | 21.39878 | 11.90429 | 32974 ft | 518 kts | 180° |
| 2026-04-27 02:12 | 21.32725 | 11.91342 | 32960 ft | 517 kts | 180° |
| 2026-04-27 02:13 | 21.25588 | 11.92251 | 32970 ft | 516 kts | 180° |
| 2026-04-27 02:13 | 21.18456 | 11.93158 | 32966 ft | 516 kts | 180° |
| 2026-04-27 02:14 | 21.11373 | 11.94057 | 32970 ft | 516 kts | 180° |
| 2026-04-27 02:14 | 21.04240 | 11.94962 | 32963 ft | 516 kts | 180° |
| 2026-04-27 02:15 | 20.97107 | 11.95867 | 32964 ft | 516 kts | 180° |
| 2026-04-27 02:15 | 20.89971 | 11.96771 | 32963 ft | 516 kts | 180° |
| 2026-04-27 02:16 | 20.82891 | 11.97668 | 32962 ft | 516 kts | 180° |
| 2026-04-27 02:16 | 20.75756 | 11.98570 | 32964 ft | 516 kts | 180° |
| 2026-04-27 02:17 | 20.68629 | 11.99471 | 32958 ft | 515 kts | 180° |
| 2026-04-27 02:17 | 20.61528 | 12.00369 | 32960 ft | 513 kts | 180° |
| 2026-04-27 02:18 | 20.54488 | 12.01256 | 32958 ft | 513 kts | 180° |
| 2026-04-27 02:18 | 20.47403 | 12.02148 | 32957 ft | 513 kts | 180° |
| 2026-04-27 02:19 | 20.40323 | 12.03039 | 32955 ft | 513 kts | 180° |
| 2026-04-27 02:19 | 20.33238 | 12.03929 | 32955 ft | 512 kts | 179° |
| 2026-04-27 02:20 | 20.26211 | 12.04813 | 32958 ft | 512 kts | 179° |
| 2026-04-27 02:20 | 20.19125 | 12.05701 | 32958 ft | 513 kts | 179° |
| 2026-04-27 02:21 | 20.12039 | 12.06590 | 32957 ft | 513 kts | 179° |
| 2026-04-27 02:21 | 20.04942 | 12.07480 | 32948 ft | 513 kts | 179° |
| 2026-04-27 02:22 | 19.97890 | 12.08362 | 32956 ft | 514 kts | 179° |
| 2026-04-27 02:22 | 19.90783 | 12.09251 | 32953 ft | 514 kts | 179° |
| 2026-04-27 02:23 | 19.83683 | 12.10139 | 32949 ft | 514 kts | 179° |
| 2026-04-27 02:23 | 19.76572 | 12.11027 | 32950 ft | 514 kts | 179° |
| 2026-04-27 02:24 | 19.69511 | 12.11908 | 32944 ft | 514 kts | 179° |
| 2026-04-27 02:24 | 19.62414 | 12.12794 | 32943 ft | 513 kts | 179° |
| 2026-04-27 02:25 | 19.55326 | 12.13676 | 32957 ft | 513 kts | 179° |
| 2026-04-27 02:25 | 19.48233 | 12.14557 | 32940 ft | 513 kts | 179° |
| 2026-04-27 02:26 | 19.41189 | 12.15432 | 32944 ft | 513 kts | 179° |
| 2026-04-27 02:26 | 19.34102 | 12.16313 | 32942 ft | 512 kts | 178° |
| 2026-04-27 02:27 | 19.27030 | 12.17191 | 32945 ft | 511 kts | 178° |
| 2026-04-27 02:27 | 19.19962 | 12.18067 | 32932 ft | 511 kts | 178° |
| 2026-04-27 02:28 | 19.12938 | 12.18937 | 32933 ft | 511 kts | 178° |
| 2026-04-27 02:28 | 19.05868 | 12.19812 | 32938 ft | 511 kts | 178° |
| 2026-04-27 02:29 | 18.98806 | 12.20685 | 32931 ft | 511 kts | 178° |
| 2026-04-27 02:29 | 18.91746 | 12.21557 | 32935 ft | 511 kts | 178° |
| 2026-04-27 02:30 | 18.84734 | 12.22423 | 32936 ft | 511 kts | 178° |
| 2026-04-27 02:30 | 18.77673 | 12.23294 | 32937 ft | 511 kts | 178° |
| 2026-04-27 02:31 | 18.70616 | 12.24163 | 32926 ft | 511 kts | 178° |
| 2026-04-27 02:31 | 18.63565 | 12.25032 | 32933 ft | 509 kts | 178° |
| 2026-04-27 02:32 | 18.56576 | 12.25892 | 32931 ft | 509 kts | 178° |
| 2026-04-27 02:32 | 18.49543 | 12.26756 | 32936 ft | 509 kts | 178° |
| 2026-04-27 02:33 | 18.42506 | 12.27620 | 32930 ft | 509 kts | 178° |
| 2026-04-27 02:33 | 18.35467 | 12.28485 | 32927 ft | 509 kts | 177° |
| 2026-04-27 02:34 | 18.28432 | 12.29349 | 32931 ft | 509 kts | 177° |
| 2026-04-27 02:34 | 18.21437 | 12.30205 | 32929 ft | 509 kts | 177° |
| 2026-04-27 02:35 | 18.14398 | 12.31066 | 32926 ft | 509 kts | 177° |
| 2026-04-27 02:35 | 18.07361 | 12.31927 | 32925 ft | 509 kts | 177° |
| 2026-04-27 02:36 | 18.00322 | 12.32787 | 32921 ft | 509 kts | 176° |
| 2026-04-27 02:36 | 17.93346 | 12.33639 | 32927 ft | 508 kts | 176° |
| 2026-04-27 02:37 | 17.86330 | 12.34495 | 32927 ft | 508 kts | 176° |
| 2026-04-27 02:37 | 17.79305 | 12.35352 | 32928 ft | 508 kts | 176° |
| 2026-04-27 02:38 | 17.72282 | 12.36208 | 32926 ft | 508 kts | 176° |
| 2026-04-27 02:38 | 17.65312 | 12.37056 | 32926 ft | 508 kts | 176° |
| 2026-04-27 02:39 | 17.58294 | 12.37909 | 32920 ft | 508 kts | 176° |
| 2026-04-27 02:39 | 17.51276 | 12.38763 | 32918 ft | 507 kts | 176° |
| 2026-04-27 02:40 | 17.44261 | 12.39615 | 32919 ft | 508 kts | 176° |
| 2026-04-27 02:40 | 17.37288 | 12.40461 | 32916 ft | 508 kts | 176° |
| 2026-04-27 02:41 | 17.30273 | 12.41311 | 32914 ft | 508 kts | 176° |
| 2026-04-27 02:41 | 17.23257 | 12.42162 | 32915 ft | 507 kts | 176° |
| 2026-04-27 02:42 | 17.16242 | 12.43012 | 32916 ft | 507 kts | 176° |
| 2026-04-27 02:42 | 17.09226 | 12.43861 | 32913 ft | 507 kts | 176° |
| 2026-04-27 02:43 | 17.02262 | 12.44702 | 32912 ft | 507 kts | 176° |
| 2026-04-27 02:43 | 16.95249 | 12.45549 | 32915 ft | 507 kts | 176° |
| 2026-04-27 02:44 | 16.88250 | 12.46395 | 32914 ft | 506 kts | 176° |
| 2026-04-27 02:44 | 16.81250 | 12.47239 | 32913 ft | 506 kts | 176° |
| 2026-04-27 02:45 | 16.74293 | 12.48077 | 32907 ft | 507 kts | 176° |
| 2026-04-27 02:45 | 16.67292 | 12.48920 | 32911 ft | 507 kts | 176° |
| 2026-04-27 02:46 | 16.60290 | 12.49763 | 32909 ft | 506 kts | 176° |
| 2026-04-27 02:46 | 16.53307 | 12.50604 | 32913 ft | 505 kts | 176° |
| 2026-04-27 02:47 | 16.46363 | 12.51438 | 32903 ft | 505 kts | 176° |
| 2026-04-27 02:47 | 16.39377 | 12.52277 | 32904 ft | 505 kts | 176° |
| 2026-04-27 02:48 | 16.32390 | 12.53116 | 32910 ft | 505 kts | 176° |
| 2026-04-27 02:48 | 16.25397 | 12.53954 | 32911 ft | 506 kts | 176° |
| 2026-04-27 02:49 | 16.18447 | 12.54787 | 32886 ft | 506 kts | 176° |
| 2026-04-27 02:49 | 16.11449 | 12.55625 | 32897 ft | 506 kts | 176° |
| 2026-04-27 02:50 | 16.04446 | 12.56463 | 32894 ft | 506 kts | 176° |
| 2026-04-27 02:50 | 15.97445 | 12.57301 | 32879 ft | 506 kts | 176° |
| 2026-04-27 02:51 | 15.90492 | 12.58132 | 32892 ft | 506 kts | 176° |
| 2026-04-27 02:51 | 15.83491 | 12.58968 | 32891 ft | 506 kts | 176° |
| 2026-04-27 02:52 | 15.76498 | 12.59802 | 32887 ft | 506 kts | 176° |
| 2026-04-27 02:52 | 15.69497 | 12.60637 | 32884 ft | 506 kts | 176° |
| 2026-04-27 02:53 | 15.62497 | 12.61471 | 32881 ft | 506 kts | 176° |
| 2026-04-27 02:53 | 15.55541 | 12.62299 | 32881 ft | 507 kts | 176° |
| 2026-04-27 02:54 | 15.48532 | 12.63134 | 32881 ft | 507 kts | 176° |
| 2026-04-27 02:54 | 15.41519 | 12.63968 | 32881 ft | 507 kts | 176° |
| 2026-04-27 02:55 | 15.34506 | 12.64802 | 32878 ft | 507 kts | 176° |
| 2026-04-27 02:55 | 15.27543 | 12.65629 | 32877 ft | 507 kts | 176° |
| 2026-04-27 02:56 | 15.20526 | 12.66462 | 32879 ft | 508 kts | 176° |
| 2026-04-27 02:56 | 15.13501 | 12.67295 | 32878 ft | 508 kts | 176° |
| 2026-04-27 02:57 | 15.06472 | 12.68128 | 32876 ft | 508 kts | 176° |
| 2026-04-27 02:57 | 14.99498 | 12.68954 | 32879 ft | 508 kts | 176° |
| 2026-04-27 02:58 | 14.92472 | 12.69785 | 32874 ft | 508 kts | 176° |
| 2026-04-27 02:58 | 14.85445 | 12.70617 | 32876 ft | 508 kts | 176° |
| 2026-04-27 02:59 | 14.78423 | 12.71447 | 32876 ft | 508 kts | 176° |
| 2026-04-27 02:59 | 14.71447 | 12.72271 | 32876 ft | 508 kts | 176° |
| 2026-04-27 03:00 | 14.64423 | 12.73100 | 32879 ft | 508 kts | 176° |
| 2026-04-27 03:00 | 14.57400 | 12.73929 | 32878 ft | 508 kts | 176° |
| 2026-04-27 03:01 | 14.50385 | 12.74756 | 32878 ft | 507 kts | 175° |
| 2026-04-27 03:01 | 14.43420 | 12.75577 | 32878 ft | 507 kts | 175° |
| 2026-04-27 03:02 | 14.36414 | 12.76402 | 32878 ft | 507 kts | 175° |
| 2026-04-27 03:02 | 14.29405 | 12.77226 | 32884 ft | 507 kts | 176° |
| 2026-04-27 03:03 | 14.18938 | 12.78458 | 32880 ft | 507 kts | 176° |
| 2026-04-27 03:04 | 14.11932 | 12.79281 | 32888 ft | 507 kts | 176° |
| 2026-04-27 03:04 | 14.04924 | 12.80104 | 32888 ft | 507 kts | 176° |
| 2026-04-27 03:05 | 13.97915 | 12.80926 | 32889 ft | 507 kts | 176° |
| 2026-04-27 03:05 | 13.90955 | 12.81743 | 32886 ft | 507 kts | 176° |
| 2026-04-27 03:06 | 13.83954 | 12.82563 | 32883 ft | 507 kts | 175° |
| 2026-04-27 03:06 | 13.76939 | 12.83385 | 32883 ft | 507 kts | 175° |
| 2026-04-27 03:07 | 13.69926 | 12.84206 | 32884 ft | 507 kts | 175° |
| 2026-04-27 03:07 | 13.62913 | 12.85027 | 32883 ft | 507 kts | 175° |
| 2026-04-27 03:08 | 13.55945 | 12.85841 | 32883 ft | 507 kts | 175° |
| 2026-04-27 03:08 | 13.48924 | 12.86659 | 32884 ft | 508 kts | 176° |
| 2026-04-27 03:09 | 13.41887 | 12.87444 | 32880 ft | 509 kts | 175° |
| 2026-04-27 03:09 | 13.34847 | 12.88283 | 32880 ft | 510 kts | 175° |
| 2026-04-27 03:10 | 13.27847 | 12.89118 | 32882 ft | 510 kts | 175° |
| 2026-04-27 03:10 | 13.20802 | 12.89946 | 32883 ft | 509 kts | 175° |
| 2026-04-27 03:11 | 13.13760 | 12.90766 | 32886 ft | 510 kts | 175° |
| 2026-04-27 03:11 | 13.06711 | 12.91586 | 32887 ft | 510 kts | 175° |
| 2026-04-27 03:12 | 12.99711 | 12.92401 | 32886 ft | 510 kts | 175° |
| 2026-04-27 03:12 | 12.92661 | 12.93221 | 32883 ft | 510 kts | 175° |
| 2026-04-27 03:13 | 12.85609 | 12.94041 | 32887 ft | 510 kts | 175° |
| 2026-04-27 03:13 | 12.78565 | 12.94859 | 32887 ft | 510 kts | 175° |
| 2026-04-27 03:14 | 12.71565 | 12.95673 | 32888 ft | 509 kts | 175° |
| 2026-04-27 03:14 | 12.64523 | 12.96490 | 32889 ft | 509 kts | 175° |
| 2026-04-27 03:15 | 12.57483 | 12.97306 | 32894 ft | 509 kts | 175° |
| 2026-04-27 03:15 | 12.50444 | 12.98122 | 32891 ft | 509 kts | 175° |
| 2026-04-27 03:16 | 12.43399 | 12.98939 | 32890 ft | 509 kts | 175° |
| 2026-04-27 03:16 | 12.36411 | 12.99748 | 32892 ft | 509 kts | 175° |
| 2026-04-27 03:17 | 12.29375 | 13.00562 | 32895 ft | 509 kts | 175° |
| 2026-04-27 03:17 | 12.22343 | 13.01376 | 32895 ft | 509 kts | 175° |
| 2026-04-27 03:18 | 12.15305 | 13.02190 | 32895 ft | 509 kts | 175° |
| 2026-04-27 03:18 | 12.08318 | 13.02998 | 32894 ft | 509 kts | 174° |
| 2026-04-27 03:19 | 12.01273 | 13.03809 | 32898 ft | 510 kts | 174° |
| 2026-04-27 03:19 | 11.94226 | 13.04605 | 32897 ft | 510 kts | 175° |
| 2026-04-27 03:20 | 11.87175 | 13.05427 | 32896 ft | 510 kts | 174° |
| 2026-04-27 03:20 | 11.80171 | 13.06243 | 32898 ft | 510 kts | 175° |
| 2026-04-27 03:21 | 11.73123 | 13.07058 | 32896 ft | 510 kts | 174° |
| 2026-04-27 03:21 | 11.66084 | 13.07871 | 32901 ft | 508 kts | 174° |
| 2026-04-27 03:22 | 11.59055 | 13.08674 | 32907 ft | 508 kts | 174° |
| 2026-04-27 03:22 | 11.52072 | 13.09478 | 32906 ft | 508 kts | 174° |
| 2026-04-27 03:23 | 11.45045 | 13.10289 | 32910 ft | 508 kts | 174° |
| 2026-04-27 03:23 | 11.38016 | 13.11098 | 32910 ft | 508 kts | 174° |
| 2026-04-27 03:24 | 11.30979 | 13.11896 | 32912 ft | 509 kts | 174° |
| 2026-04-27 03:24 | 11.23929 | 13.12707 | 32920 ft | 510 kts | 174° |
| 2026-04-27 03:25 | 11.16934 | 13.13515 | 32916 ft | 509 kts | 174° |
| 2026-04-27 03:25 | 11.09898 | 13.14307 | 32925 ft | 509 kts | 174° |
| 2026-04-27 03:26 | 11.02863 | 13.15120 | 32926 ft | 508 kts | 174° |
| 2026-04-27 03:26 | 10.95836 | 13.15936 | 32930 ft | 508 kts | 174° |
| 2026-04-27 03:27 | 10.88820 | 13.16743 | 32929 ft | 507 kts | 174° |
| 2026-04-27 03:27 | 10.81851 | 13.17542 | 32930 ft | 508 kts | 174° |
| 2026-04-27 03:28 | 10.74831 | 13.18345 | 32932 ft | 508 kts | 174° |
| 2026-04-27 03:28 | 10.67811 | 13.19148 | 32936 ft | 507 kts | 174° |
| 2026-04-27 03:29 | 10.60838 | 13.19945 | 32935 ft | 508 kts | 174° |
| 2026-04-27 03:29 | 10.53826 | 13.20747 | 32949 ft | 507 kts | 174° |
| 2026-04-27 03:30 | 10.46803 | 13.21549 | 32951 ft | 508 kts | 174° |
| 2026-04-27 03:30 | 10.39784 | 13.22351 | 32955 ft | 508 kts | 174° |
| 2026-04-27 03:31 | 10.32812 | 13.23147 | 32957 ft | 508 kts | 174° |
| 2026-04-27 03:31 | 10.25794 | 13.23947 | 32960 ft | 507 kts | 174° |
| 2026-04-27 03:32 | 10.18775 | 13.24748 | 32958 ft | 507 kts | 174° |
| 2026-04-27 03:32 | 10.11762 | 13.25548 | 32956 ft | 507 kts | 174° |
| 2026-04-27 03:33 | 10.04797 | 13.26341 | 32958 ft | 507 kts | 174° |
| 2026-04-27 03:33 | 9.97783 | 13.27140 | 32951 ft | 507 kts | 174° |
| 2026-04-27 03:34 | 9.90769 | 13.27939 | 32954 ft | 506 kts | 174° |
| 2026-04-27 03:34 | 9.83778 | 13.28734 | 32941 ft | 505 kts | 174° |
| 2026-04-27 03:35 | 9.76849 | 13.29522 | 32946 ft | 505 kts | 174° |
| 2026-04-27 03:35 | 9.69872 | 13.30316 | 32932 ft | 505 kts | 174° |
| 2026-04-27 03:36 | 9.62896 | 13.31109 | 32931 ft | 504 kts | 174° |
| 2026-04-27 03:36 | 9.55917 | 13.31901 | 32926 ft | 505 kts | 174° |
| 2026-04-27 03:37 | 9.48986 | 13.32689 | 32921 ft | 504 kts | 174° |
| 2026-04-27 03:37 | 9.42016 | 13.33480 | 32920 ft | 504 kts | 174° |
| 2026-04-27 03:38 | 9.35045 | 13.34271 | 32917 ft | 504 kts | 174° |
| 2026-04-27 03:38 | 9.28074 | 13.35040 | 32917 ft | 504 kts | 174° |
| 2026-04-27 03:39 | 9.21095 | 13.35759 | 32915 ft | 504 kts | 174° |
| 2026-04-27 03:39 | 9.14170 | 13.36469 | 32916 ft | 502 kts | 174° |
| 2026-04-27 03:40 | 9.07215 | 13.37190 | 32916 ft | 502 kts | 174° |
| 2026-04-27 03:40 | 9.00269 | 13.37914 | 32916 ft | 502 kts | 174° |
| 2026-04-27 03:41 | 8.93324 | 13.38638 | 32915 ft | 502 kts | 174° |
| 2026-04-27 03:41 | 8.86421 | 13.39358 | 32917 ft | 502 kts | 174° |
| 2026-04-27 03:42 | 8.79467 | 13.40082 | 32919 ft | 503 kts | 174° |
| 2026-04-27 03:42 | 8.72512 | 13.40806 | 32919 ft | 503 kts | 174° |
| 2026-04-27 03:43 | 8.65554 | 13.41530 | 32925 ft | 503 kts | 174° |
| 2026-04-27 03:43 | 8.58641 | 13.42250 | 32928 ft | 503 kts | 174° |
| 2026-04-27 03:44 | 8.51681 | 13.42974 | 32937 ft | 503 kts | 174° |
| 2026-04-27 03:44 | 8.44719 | 13.43697 | 32936 ft | 502 kts | 174° |
| 2026-04-27 03:45 | 8.37773 | 13.44419 | 32939 ft | 501 kts | 174° |
| 2026-04-27 03:45 | 8.30883 | 13.45135 | 32942 ft | 501 kts | 174° |
| 2026-04-27 03:46 | 8.23946 | 13.45855 | 32947 ft | 501 kts | 174° |
| 2026-04-27 03:46 | 8.17003 | 13.46576 | 32946 ft | 501 kts | 174° |
| 2026-04-27 03:47 | 8.10066 | 13.47297 | 32958 ft | 501 kts | 174° |
| 2026-04-27 03:47 | 8.03185 | 13.47999 | 32955 ft | 500 kts | 174° |
| 2026-04-27 03:48 | 7.96256 | 13.48727 | 32968 ft | 500 kts | 174° |
| 2026-04-27 03:48 | 7.90502 | 13.49325 | 32966 ft | 500 kts | 174° |
| 2026-04-27 03:49 | 7.83575 | 13.50043 | 32967 ft | 501 kts | 174° |
| 2026-04-27 03:49 | 7.75507 | 13.50878 | 32987 ft | 502 kts | 174° |
| 2026-04-27 03:50 | 7.68562 | 13.51597 | 32985 ft | 501 kts | 174° |
| 2026-04-27 03:50 | 7.62802 | 13.52194 | 33000 ft | 501 kts | 174° |
| 2026-04-27 03:51 | 7.55870 | 13.52911 | 32999 ft | 501 kts | 174° |
| 2026-04-27 03:51 | 7.47810 | 13.53745 | 33018 ft | 501 kts | 174° |
| 2026-04-27 03:52 | 7.41999 | 13.54346 | 33016 ft | 501 kts | 174° |
| 2026-04-27 03:52 | 7.35110 | 13.55056 | 33031 ft | 501 kts | 174° |
| 2026-04-27 03:53 | 7.28168 | 13.55769 | 33029 ft | 502 kts | 174° |
| 2026-04-27 03:53 | 7.20095 | 13.56622 | 33028 ft | 502 kts | 172° |
| 2026-04-27 03:54 | 7.14349 | 13.57457 | 33032 ft | 502 kts | 170° |
| 2026-04-27 03:54 | 7.07456 | 13.58570 | 33028 ft | 502 kts | 170° |
| 2026-04-27 03:55 | 7.00557 | 13.59653 | 33027 ft | 502 kts | 171° |
| 2026-04-27 03:55 | 6.93652 | 13.60700 | 33022 ft | 502 kts | 171° |
| 2026-04-27 03:56 | 6.86745 | 13.61734 | 33023 ft | 502 kts | 171° |
| 2026-04-27 03:56 | 6.79882 | 13.62761 | 33022 ft | 502 kts | 171° |
| 2026-04-27 03:57 | 6.72979 | 13.63795 | 33019 ft | 502 kts | 171° |
| 2026-04-27 03:57 | 6.66071 | 13.64831 | 33022 ft | 502 kts | 171° |
| 2026-04-27 03:58 | 6.59206 | 13.65862 | 33020 ft | 504 kts | 171° |
| 2026-04-27 03:58 | 6.52263 | 13.66895 | 33019 ft | 505 kts | 171° |
| 2026-04-27 03:59 | 6.45315 | 13.67937 | 33017 ft | 505 kts | 171° |
| 2026-04-27 03:59 | 6.38364 | 13.68981 | 33016 ft | 505 kts | 171° |
| 2026-04-27 04:00 | 6.31465 | 13.70018 | 33029 ft | 505 kts | 171° |
| 2026-04-27 04:00 | 6.24515 | 13.71048 | 33019 ft | 505 kts | 171° |
| 2026-04-27 04:01 | 6.17555 | 13.72070 | 33020 ft | 506 kts | 171° |
| 2026-04-27 04:01 | 6.10598 | 13.73121 | 33016 ft | 506 kts | 170° |
| 2026-04-27 04:02 | 6.03684 | 13.74166 | 33014 ft | 506 kts | 171° |
| 2026-04-27 04:02 | 5.96718 | 13.75209 | 33012 ft | 506 kts | 171° |
| 2026-04-27 04:03 | 5.89760 | 13.76246 | 33010 ft | 506 kts | 170° |
| 2026-04-27 04:03 | 5.82810 | 13.77282 | 33009 ft | 505 kts | 170° |
| 2026-04-27 04:04 | 5.75864 | 13.78318 | 33004 ft | 504 kts | 170° |
| 2026-04-27 04:04 | 5.68970 | 13.79346 | 33006 ft | 504 kts | 170° |
| 2026-04-27 04:05 | 5.62025 | 13.80381 | 33006 ft | 504 kts | 170° |
| 2026-04-27 04:05 | 5.55083 | 13.81416 | 33010 ft | 504 kts | 170° |
| 2026-04-27 04:06 | 5.48143 | 13.82450 | 33009 ft | 504 kts | 170° |
| 2026-04-27 04:06 | 5.41260 | 13.83475 | 33009 ft | 504 kts | 170° |
| 2026-04-27 04:07 | 5.30856 | 13.85024 | 33004 ft | 504 kts | 170° |
| 2026-04-27 04:07 | 5.23922 | 13.86056 | 33009 ft | 503 kts | 170° |
| 2026-04-27 04:08 | 5.17048 | 13.87079 | 33010 ft | 503 kts | 170° |
| 2026-04-27 04:08 | 5.10124 | 13.88111 | 33008 ft | 503 kts | 170° |
| 2026-04-27 04:09 | 5.03197 | 13.89142 | 33009 ft | 503 kts | 170° |
| 2026-04-27 04:09 | 4.96273 | 13.90172 | 33003 ft | 503 kts | 170° |
| 2026-04-27 04:10 | 4.89348 | 13.91202 | 33008 ft | 503 kts | 170° |
| 2026-04-27 04:10 | 4.82466 | 13.92226 | 32998 ft | 503 kts | 170° |
| 2026-04-27 04:11 | 4.75538 | 13.93256 | 33004 ft | 503 kts | 169° |
| 2026-04-27 04:11 | 4.68612 | 13.94286 | 32997 ft | 503 kts | 169° |
| 2026-04-27 04:12 | 4.61682 | 13.95316 | 32999 ft | 503 kts | 169° |
| 2026-04-27 04:12 | 4.54801 | 13.96340 | 32994 ft | 503 kts | 169° |
| 2026-04-27 04:13 | 4.47870 | 13.97369 | 32998 ft | 503 kts | 169° |
| 2026-04-27 04:13 | 4.40945 | 13.98398 | 32994 ft | 503 kts | 169° |
| 2026-04-27 04:14 | 4.34057 | 13.99421 | 32993 ft | 503 kts | 169° |
| 2026-04-27 04:14 | 4.27130 | 14.00450 | 32995 ft | 503 kts | 169° |
| 2026-04-27 04:15 | 4.20198 | 14.01480 | 32998 ft | 503 kts | 169° |
| 2026-04-27 04:15 | 4.13269 | 14.02508 | 32993 ft | 503 kts | 169° |
| 2026-04-27 04:16 | 4.06341 | 14.03537 | 32993 ft | 503 kts | 169° |
| 2026-04-27 04:16 | 3.99405 | 14.04566 | 32996 ft | 504 kts | 169° |
| 2026-04-27 04:17 | 3.92518 | 14.05587 | 33001 ft | 504 kts | 169° |
| 2026-04-27 04:17 | 3.85581 | 14.06613 | 32998 ft | 504 kts | 169° |
| 2026-04-27 04:18 | 3.78646 | 14.07640 | 32996 ft | 504 kts | 169° |
| 2026-04-27 04:18 | 3.71707 | 14.08668 | 32999 ft | 504 kts | 169° |
| 2026-04-27 04:19 | 3.64816 | 14.09687 | 32995 ft | 504 kts | 169° |
| 2026-04-27 04:19 | 3.57869 | 14.10714 | 32997 ft | 505 kts | 169° |
| 2026-04-27 04:20 | 3.50923 | 14.11743 | 32993 ft | 504 kts | 169° |
| 2026-04-27 04:20 | 3.43979 | 14.12775 | 32997 ft | 504 kts | 169° |
| 2026-04-27 04:21 | 3.37081 | 14.13793 | 32993 ft | 504 kts | 169° |
| 2026-04-27 04:21 | 3.30140 | 14.14818 | 32993 ft | 504 kts | 169° |
| 2026-04-27 04:22 | 3.23196 | 14.15845 | 32993 ft | 504 kts | 169° |
| 2026-04-27 04:22 | 3.16251 | 14.16872 | 32994 ft | 504 kts | 169° |
| 2026-04-27 04:23 | 3.09358 | 14.17896 | 32996 ft | 504 kts | 169° |
| 2026-04-27 04:23 | 3.02414 | 14.18923 | 32999 ft | 504 kts | 169° |
| 2026-04-27 04:24 | 2.95475 | 14.19949 | 32992 ft | 504 kts | 169° |
| 2026-04-27 04:24 | 2.88525 | 14.20978 | 32995 ft | 505 kts | 169° |
| 2026-04-27 04:25 | 2.81614 | 14.22001 | 32998 ft | 505 kts | 169° |
| 2026-04-27 04:25 | 2.74670 | 14.23029 | 32994 ft | 504 kts | 169° |
| 2026-04-27 04:26 | 2.67728 | 14.24057 | 32992 ft | 504 kts | 169° |
| 2026-04-27 04:26 | 2.60788 | 14.25083 | 32994 ft | 504 kts | 169° |
| 2026-04-27 04:27 | 2.53852 | 14.26110 | 33000 ft | 503 kts | 169° |
| 2026-04-27 04:27 | 2.46971 | 14.27128 | 32995 ft | 503 kts | 169° |
| 2026-04-27 04:28 | 2.40046 | 14.28152 | 32997 ft | 503 kts | 169° |
| 2026-04-27 04:28 | 2.33117 | 14.29178 | 32993 ft | 503 kts | 169° |
| 2026-04-27 04:29 | 2.26194 | 14.30201 | 32997 ft | 503 kts | 169° |
| 2026-04-27 04:29 | 2.19313 | 14.31219 | 32996 ft | 503 kts | 169° |
| 2026-04-27 04:30 | 2.12403 | 14.32239 | 32996 ft | 502 kts | 169° |
| 2026-04-27 04:30 | 2.05491 | 14.33259 | 32997 ft | 502 kts | 169° |
| 2026-04-27 04:31 | 1.98584 | 14.34281 | 32995 ft | 502 kts | 169° |
| 2026-04-27 04:31 | 1.91723 | 14.35294 | 32995 ft | 502 kts | 169° |
| 2026-04-27 04:32 | 1.84817 | 14.36314 | 32996 ft | 502 kts | 169° |
| 2026-04-27 04:32 | 1.77903 | 14.37331 | 32999 ft | 503 kts | 169° |
| 2026-04-27 04:33 | 1.70975 | 14.38353 | 32998 ft | 503 kts | 169° |
| 2026-04-27 04:33 | 1.64100 | 14.39373 | 32997 ft | 503 kts | 169° |
| 2026-04-27 04:34 | 1.57176 | 14.40397 | 32995 ft | 503 kts | 169° |
| 2026-04-27 04:34 | 1.50248 | 14.41421 | 32997 ft | 503 kts | 169° |
| 2026-04-27 04:35 | 1.43320 | 14.42446 | 33002 ft | 504 kts | 169° |
| 2026-04-27 04:35 | 1.36378 | 14.43486 | 33005 ft | 505 kts | 169° |
| 2026-04-27 04:36 | 1.29469 | 14.44498 | 33002 ft | 505 kts | 169° |
| 2026-04-27 04:36 | 1.22507 | 14.45518 | 33002 ft | 505 kts | 169° |
| 2026-04-27 04:37 | 1.15553 | 14.46543 | 33005 ft | 505 kts | 169° |
| 2026-04-27 04:37 | 1.08642 | 14.47563 | 33008 ft | 505 kts | 169° |
| 2026-04-27 04:38 | 1.01691 | 14.48589 | 33003 ft | 505 kts | 169° |
| 2026-04-27 04:38 | 0.94735 | 14.49616 | 33007 ft | 505 kts | 169° |
| 2026-04-27 04:39 | 0.87786 | 14.50642 | 32999 ft | 505 kts | 169° |
| 2026-04-27 04:39 | 0.80882 | 14.51661 | 33004 ft | 505 kts | 169° |
| 2026-04-27 04:40 | 0.73935 | 14.52686 | 33003 ft | 505 kts | 169° |
| 2026-04-27 04:40 | 0.66973 | 14.53714 | 33002 ft | 506 kts | 169° |
| 2026-04-27 04:41 | 0.60009 | 14.54741 | 33003 ft | 506 kts | 169° |
| 2026-04-27 04:41 | 0.53090 | 14.55764 | 32996 ft | 506 kts | 169° |
| 2026-04-27 04:42 | 0.46130 | 14.56791 | 32998 ft | 506 kts | 169° |
| 2026-04-27 04:42 | 0.39164 | 14.57818 | 32999 ft | 506 kts | 169° |
| 2026-04-27 04:43 | 0.32193 | 14.58847 | 32997 ft | 507 kts | 169° |
| 2026-04-27 04:43 | 0.25209 | 14.59879 | 32996 ft | 508 kts | 169° |
| 2026-04-27 04:44 | 0.18266 | 14.60903 | 32999 ft | 508 kts | 169° |
| 2026-04-27 04:44 | 0.11274 | 14.61934 | 32999 ft | 508 kts | 169° |
| 2026-04-27 04:45 | 0.04285 | 14.62967 | 32995 ft | 508 kts | 169° |
| 2026-04-27 04:45 | -0.02701 | 14.63998 | 32991 ft | 508 kts | 169° |
| 2026-04-27 04:46 | -0.09674 | 14.65009 | 32996 ft | 511 kts | 169° |
| 2026-04-27 04:46 | -0.16706 | 14.66055 | 32995 ft | 511 kts | 169° |
| 2026-04-27 04:47 | -0.23740 | 14.67103 | 32996 ft | 511 kts | 169° |
| 2026-04-27 04:47 | -0.30776 | 14.68140 | 32994 ft | 511 kts | 169° |
| 2026-04-27 04:48 | -0.37759 | 14.69170 | 32996 ft | 511 kts | 169° |
| 2026-04-27 04:48 | -0.44792 | 14.70207 | 32994 ft | 511 kts | 169° |
| 2026-04-27 04:49 | -0.51828 | 14.71245 | 32995 ft | 511 kts | 169° |
| 2026-04-27 04:49 | -0.58859 | 14.72282 | 32997 ft | 511 kts | 169° |
| 2026-04-27 04:50 | -0.65847 | 14.73313 | 33001 ft | 511 kts | 169° |
| 2026-04-27 04:50 | -0.72881 | 14.74351 | 32996 ft | 511 kts | 169° |
| 2026-04-27 04:51 | -0.79916 | 14.75389 | 33001 ft | 511 kts | 170° |
| 2026-04-27 04:51 | -0.86940 | 14.76426 | 32997 ft | 511 kts | 170° |
| 2026-04-27 04:52 | -0.93927 | 14.77456 | 33002 ft | 511 kts | 170° |
| 2026-04-27 04:52 | -1.00952 | 14.78493 | 33002 ft | 511 kts | 170° |
| 2026-04-27 04:53 | -1.07985 | 14.79531 | 33001 ft | 511 kts | 170° |
| 2026-04-27 04:53 | -1.15014 | 14.80568 | 33002 ft | 511 kts | 170° |
| 2026-04-27 04:54 | -1.22048 | 14.81607 | 33005 ft | 511 kts | 170° |
| 2026-04-27 04:54 | -1.29040 | 14.82639 | 33006 ft | 511 kts | 170° |
| 2026-04-27 04:55 | -1.36077 | 14.83677 | 33006 ft | 511 kts | 170° |
| 2026-04-27 04:55 | -1.43110 | 14.84715 | 33007 ft | 511 kts | 170° |
| 2026-04-27 04:56 | -1.50105 | 14.85748 | 33008 ft | 511 kts | 170° |
| 2026-04-27 04:56 | -1.57133 | 14.86790 | 33009 ft | 510 kts | 170° |
| 2026-04-27 04:57 | -1.64153 | 14.87825 | 33012 ft | 510 kts | 170° |
| 2026-04-27 04:57 | -1.71176 | 14.88860 | 33013 ft | 510 kts | 170° |
| 2026-04-27 04:58 | -1.78153 | 14.89889 | 33015 ft | 510 kts | 170° |
| 2026-04-27 04:58 | -1.85175 | 14.90926 | 33016 ft | 510 kts | 170° |
| 2026-04-27 04:59 | -1.92197 | 14.91919 | 33022 ft | 509 kts | 171° |
| 2026-04-27 04:59 | -1.99211 | 14.92892 | 33016 ft | 508 kts | 171° |
| 2026-04-27 05:00 | -2.06169 | 14.93863 | 33020 ft | 508 kts | 171° |
| 2026-04-27 05:00 | -2.13165 | 14.94845 | 33020 ft | 508 kts | 171° |
| 2026-04-27 05:01 | -2.20166 | 14.95831 | 33022 ft | 508 kts | 171° |
| 2026-04-27 05:01 | -2.27155 | 14.96800 | 33021 ft | 506 kts | 171° |
| 2026-04-27 05:02 | -2.34069 | 14.97775 | 33021 ft | 505 kts | 171° |
| 2026-04-27 05:03 | -2.44502 | 14.99254 | 33017 ft | 505 kts | 171° |
| 2026-04-27 05:03 | -2.51459 | 15.00234 | 33019 ft | 505 kts | 171° |
| 2026-04-27 05:04 | -2.58367 | 15.01206 | 33018 ft | 505 kts | 171° |
| 2026-04-27 05:04 | -2.65323 | 15.02185 | 33017 ft | 505 kts | 171° |
| 2026-04-27 05:05 | -2.72284 | 15.03164 | 33012 ft | 505 kts | 171° |
| 2026-04-27 05:05 | -2.79240 | 15.04144 | 33013 ft | 505 kts | 171° |
| 2026-04-27 05:06 | -2.86154 | 15.05118 | 33006 ft | 505 kts | 171° |
| 2026-04-27 05:06 | -2.93113 | 15.06098 | 33007 ft | 505 kts | 171° |
| 2026-04-27 05:07 | -3.00066 | 15.07077 | 33006 ft | 505 kts | 171° |
| 2026-04-27 05:07 | -3.07029 | 15.08058 | 33004 ft | 505 kts | 171° |
| 2026-04-27 05:08 | -3.13940 | 15.09032 | 33007 ft | 505 kts | 171° |
| 2026-04-27 05:08 | -3.20893 | 15.10011 | 33006 ft | 505 kts | 171° |
| 2026-04-27 05:09 | -3.27856 | 15.10993 | 33007 ft | 505 kts | 171° |
| 2026-04-27 05:09 | -3.34818 | 15.11972 | 33009 ft | 505 kts | 171° |
| 2026-04-27 05:10 | -3.41742 | 15.12944 | 33010 ft | 506 kts | 171° |
| 2026-04-27 05:10 | -3.48723 | 15.13931 | 33009 ft | 507 kts | 171° |
| 2026-04-27 05:11 | -3.55701 | 15.14916 | 33006 ft | 506 kts | 171° |
| 2026-04-27 05:11 | -3.62682 | 15.15902 | 33006 ft | 506 kts | 171° |
| 2026-04-27 05:12 | -3.69657 | 15.16886 | 33031 ft | 506 kts | 171° |
| 2026-04-27 05:12 | -3.76590 | 15.17864 | 33034 ft | 506 kts | 171° |
| 2026-04-27 05:13 | -3.83569 | 15.18848 | 33033 ft | 507 kts | 171° |
| 2026-04-27 05:13 | -3.90548 | 15.19832 | 33034 ft | 506 kts | 171° |
| 2026-04-27 05:14 | -3.97526 | 15.20817 | 33035 ft | 506 kts | 171° |
| 2026-04-27 05:14 | -4.04460 | 15.21796 | 33036 ft | 506 kts | 171° |
| 2026-04-27 05:15 | -4.11432 | 15.22780 | 33035 ft | 506 kts | 171° |
| 2026-04-27 05:15 | -4.18410 | 15.23787 | 33027 ft | 506 kts | 168° |
| 2026-04-27 05:16 | -4.24990 | 15.26099 | 33020 ft | 501 kts | 148° |
| 2026-04-27 05:16 | -4.27843 | 15.28090 | 33021 ft | 499 kts | 137° |
| 2026-04-27 05:16 | -4.30292 | 15.30476 | 33021 ft | 498 kts | 133° |
| 2026-04-27 05:17 | -4.34937 | 15.35610 | 32993 ft | 498 kts | 132° |
| 2026-04-27 05:17 | -4.40276 | 15.40019 | 32993 ft | 500 kts | 148° |
| 2026-04-27 05:18 | -4.46772 | 15.42481 | 32992 ft | 504 kts | 168° |
| 2026-04-27 05:18 | -4.53697 | 15.43426 | 32996 ft | 507 kts | 173° |
| 2026-04-27 05:19 | -4.60722 | 15.44116 | 32999 ft | 507 kts | 173° |
| 2026-04-27 05:19 | -4.67746 | 15.44804 | 33001 ft | 507 kts | 173° |
| 2026-04-27 05:20 | -4.74762 | 15.45533 | 33009 ft | 507 kts | 172° |
| 2026-04-27 05:20 | -4.81780 | 15.46280 | 33009 ft | 507 kts | 172° |
| 2026-04-27 05:21 | -4.88752 | 15.47028 | 33013 ft | 507 kts | 172° |
| 2026-04-27 05:21 | -4.95771 | 15.47780 | 33012 ft | 507 kts | 172° |
| 2026-04-27 05:22 | -5.02794 | 15.48531 | 33017 ft | 507 kts | 172° |
| 2026-04-27 05:22 | -5.09815 | 15.49281 | 33018 ft | 507 kts | 172° |
| 2026-04-27 05:23 | -5.16787 | 15.50025 | 33016 ft | 507 kts | 172° |
| 2026-04-27 05:23 | -5.23811 | 15.50776 | 33019 ft | 507 kts | 172° |
| 2026-04-27 05:24 | -5.30831 | 15.51528 | 33022 ft | 507 kts | 172° |
| 2026-04-27 05:24 | -5.37851 | 15.52278 | 33023 ft | 507 kts | 172° |
| 2026-04-27 05:25 | -5.44822 | 15.53024 | 33029 ft | 507 kts | 172° |
| 2026-04-27 05:25 | -5.51841 | 15.53775 | 33028 ft | 507 kts | 172° |
| 2026-04-27 05:26 | -5.58857 | 15.54526 | 33028 ft | 507 kts | 172° |
| 2026-04-27 05:26 | -5.65876 | 15.55277 | 33028 ft | 507 kts | 172° |
| 2026-04-27 05:27 | -5.72848 | 15.56024 | 33033 ft | 507 kts | 172° |
| 2026-04-27 05:27 | -5.79871 | 15.56776 | 33034 ft | 507 kts | 172° |
| 2026-04-27 05:28 | -5.86891 | 15.57531 | 33031 ft | 507 kts | 172° |
| 2026-04-27 05:28 | -5.93902 | 15.58269 | 33036 ft | 506 kts | 172° |
| 2026-04-27 05:29 | -6.00860 | 15.59016 | 33033 ft | 506 kts | 172° |
| 2026-04-27 05:29 | -6.07860 | 15.59777 | 33036 ft | 506 kts | 172° |
| 2026-04-27 05:30 | -6.14862 | 15.60534 | 33038 ft | 506 kts | 172° |
| 2026-04-27 05:30 | -6.21863 | 15.61288 | 33038 ft | 506 kts | 172° |
| 2026-04-27 05:31 | -6.28821 | 15.62036 | 33037 ft | 506 kts | 172° |
| 2026-04-27 05:31 | -6.35832 | 15.62790 | 33040 ft | 506 kts | 172° |
| 2026-04-27 05:32 | -6.42838 | 15.63544 | 33041 ft | 506 kts | 172° |
| 2026-04-27 05:32 | -6.49844 | 15.64298 | 33044 ft | 507 kts | 172° |
| 2026-04-27 05:33 | -6.56853 | 15.65053 | 33045 ft | 506 kts | 172° |
| 2026-04-27 05:33 | -6.63811 | 15.65802 | 33050 ft | 507 kts | 172° |
| 2026-04-27 05:34 | -6.70820 | 15.66556 | 33053 ft | 507 kts | 172° |
| 2026-04-27 05:34 | -6.77833 | 15.67312 | 33054 ft | 507 kts | 172° |
| 2026-04-27 05:35 | -6.84806 | 15.68064 | 33052 ft | 507 kts | 172° |
| 2026-04-27 05:35 | -6.91821 | 15.68820 | 33061 ft | 507 kts | 172° |
| 2026-04-27 05:36 | -6.98839 | 15.69577 | 33059 ft | 508 kts | 172° |
| 2026-04-27 05:36 | -7.05867 | 15.70336 | 33064 ft | 508 kts | 172° |
| 2026-04-27 05:37 | -7.12853 | 15.71090 | 33064 ft | 508 kts | 172° |
| 2026-04-27 05:37 | -7.19883 | 15.71849 | 33064 ft | 508 kts | 172° |
| 2026-04-27 05:38 | -7.26917 | 15.72608 | 33064 ft | 508 kts | 172° |
| 2026-04-27 05:38 | -7.33952 | 15.73368 | 33068 ft | 508 kts | 172° |
| 2026-04-27 05:39 | -7.40930 | 15.74122 | 33065 ft | 508 kts | 172° |
| 2026-04-27 05:39 | -7.47956 | 15.74882 | 33066 ft | 508 kts | 172° |
| 2026-04-27 05:40 | -7.54979 | 15.75641 | 33069 ft | 508 kts | 172° |
| 2026-04-27 05:40 | -7.61955 | 15.76396 | 33072 ft | 508 kts | 172° |
| 2026-04-27 05:41 | -7.68973 | 15.77158 | 33072 ft | 507 kts | 172° |
| 2026-04-27 05:41 | -7.75995 | 15.77915 | 33078 ft | 507 kts | 172° |
| 2026-04-27 05:42 | -7.83020 | 15.78670 | 33072 ft | 507 kts | 172° |
| 2026-04-27 05:42 | -7.90039 | 15.79427 | 33075 ft | 508 kts | 172° |
| 2026-04-27 05:43 | -7.97016 | 15.80180 | 33075 ft | 507 kts | 172° |
| 2026-04-27 05:43 | -8.04041 | 15.80940 | 33074 ft | 507 kts | 172° |
| 2026-04-27 05:44 | -8.11067 | 15.81703 | 33078 ft | 508 kts | 172° |
| 2026-04-27 05:44 | -8.18088 | 15.82470 | 33080 ft | 508 kts | 172° |
| 2026-04-27 05:45 | -8.25073 | 15.83233 | 33079 ft | 508 kts | 172° |
| 2026-04-27 05:45 | -8.32098 | 15.84000 | 33083 ft | 508 kts | 172° |
| 2026-04-27 05:46 | -8.39122 | 15.84769 | 33081 ft | 508 kts | 172° |
| 2026-04-27 05:46 | -8.46148 | 15.85533 | 33083 ft | 508 kts | 172° |
| 2026-04-27 05:47 | -8.53125 | 15.86287 | 33084 ft | 508 kts | 172° |
| 2026-04-27 05:47 | -8.60148 | 15.87048 | 33087 ft | 508 kts | 172° |
| 2026-04-27 05:48 | -8.67173 | 15.87812 | 33087 ft | 508 kts | 172° |
| 2026-04-27 05:48 | -8.74189 | 15.88575 | 33086 ft | 507 kts | 172° |
| 2026-04-27 05:49 | -8.81167 | 15.89333 | 33083 ft | 508 kts | 171° |
| 2026-04-27 05:49 | -8.88202 | 15.90104 | 33083 ft | 508 kts | 171° |
| 2026-04-27 05:50 | -8.95236 | 15.90869 | 33080 ft | 508 kts | 171° |
| 2026-04-27 05:50 | -9.02223 | 15.91628 | 33081 ft | 508 kts | 171° |
| 2026-04-27 05:51 | -9.09252 | 15.92394 | 33069 ft | 508 kts | 171° |
| 2026-04-27 05:51 | -9.16296 | 15.93162 | 33072 ft | 509 kts | 171° |
| 2026-04-27 05:52 | -9.23349 | 15.93932 | 33070 ft | 510 kts | 171° |
| 2026-04-27 05:52 | -9.30404 | 15.94702 | 33069 ft | 510 kts | 171° |
| 2026-04-27 05:53 | -9.37414 | 15.95467 | 33070 ft | 510 kts | 171° |
| 2026-04-27 05:53 | -9.44471 | 15.96238 | 33069 ft | 510 kts | 171° |
| 2026-04-27 05:54 | -9.51531 | 15.97015 | 33072 ft | 511 kts | 171° |
| 2026-04-27 05:54 | -9.58607 | 15.97788 | 33072 ft | 512 kts | 171° |
| 2026-04-27 05:55 | -9.65685 | 15.98561 | 33069 ft | 512 kts | 171° |
| 2026-04-27 05:55 | -9.72714 | 15.99331 | 33070 ft | 512 kts | 171° |
| 2026-04-27 05:56 | -9.79793 | 16.00107 | 33069 ft | 511 kts | 171° |
| 2026-04-27 05:56 | -9.86856 | 16.00881 | 33069 ft | 511 kts | 170° |
| 2026-04-27 05:57 | -9.93877 | 16.01652 | 33074 ft | 511 kts | 171° |
| 2026-04-27 05:57 | -10.00949 | 16.02429 | 33072 ft | 511 kts | 170° |
| 2026-04-27 05:58 | -10.08018 | 16.03205 | 33079 ft | 511 kts | 171° |
| 2026-04-27 05:58 | -10.15084 | 16.04013 | 33080 ft | 511 kts | 170° |
| 2026-04-27 05:59 | -10.22143 | 16.04865 | 33086 ft | 511 kts | 170° |
| 2026-04-27 05:59 | -10.29166 | 16.05713 | 33086 ft | 512 kts | 170° |
| 2026-04-27 06:00 | -10.39773 | 16.06982 | 33092 ft | 512 kts | 170° |
| 2026-04-27 06:00 | -10.46844 | 16.07826 | 33096 ft | 512 kts | 170° |
| 2026-04-27 06:01 | -10.53914 | 16.08670 | 33093 ft | 512 kts | 170° |
| 2026-04-27 06:01 | -10.60945 | 16.09511 | 33100 ft | 512 kts | 170° |
| 2026-04-27 06:02 | -10.68025 | 16.10357 | 33101 ft | 512 kts | 170° |
| 2026-04-27 06:02 | -10.75111 | 16.11204 | 33103 ft | 512 kts | 170° |
| 2026-04-27 06:03 | -10.82188 | 16.12050 | 33103 ft | 512 kts | 170° |
| 2026-04-27 06:03 | -10.89219 | 16.12891 | 33104 ft | 512 kts | 170° |
| 2026-04-27 06:04 | -10.96311 | 16.13718 | 33108 ft | 513 kts | 171° |
| 2026-04-27 06:04 | -11.03421 | 16.14452 | 33108 ft | 514 kts | 171° |
| 2026-04-27 06:05 | -11.10532 | 16.15176 | 33108 ft | 514 kts | 171° |
| 2026-04-27 06:05 | -11.17591 | 16.15911 | 33113 ft | 514 kts | 171° |
| 2026-04-27 06:06 | -11.24701 | 16.16659 | 33111 ft | 513 kts | 171° |
| 2026-04-27 06:06 | -11.31807 | 16.17409 | 33113 ft | 513 kts | 171° |
| 2026-04-27 06:07 | -11.38917 | 16.18160 | 33113 ft | 513 kts | 171° |
| 2026-04-27 06:07 | -11.46019 | 16.18908 | 33115 ft | 514 kts | 171° |
| 2026-04-27 06:08 | -11.53085 | 16.19654 | 33119 ft | 513 kts | 171° |
| 2026-04-27 06:08 | -11.60194 | 16.20406 | 33121 ft | 514 kts | 171° |
| 2026-04-27 06:09 | -11.67313 | 16.21159 | 33121 ft | 515 kts | 171° |
| 2026-04-27 06:09 | -11.74446 | 16.21914 | 33122 ft | 515 kts | 171° |
| 2026-04-27 06:10 | -11.81528 | 16.22662 | 33122 ft | 515 kts | 171° |
| 2026-04-27 06:10 | -11.88659 | 16.23417 | 33121 ft | 515 kts | 171° |
| 2026-04-27 06:11 | -11.95784 | 16.24172 | 33123 ft | 515 kts | 171° |
| 2026-04-27 06:11 | -12.02672 | 16.24902 | 33124 ft | 516 kts | 171° |
| 2026-04-27 06:12 | -12.09769 | 16.25654 | 33124 ft | 516 kts | 171° |
| 2026-04-27 06:12 | -12.16915 | 16.26412 | 33125 ft | 516 kts | 171° |
| 2026-04-27 06:13 | -12.24058 | 16.27171 | 33124 ft | 516 kts | 171° |
| 2026-04-27 06:13 | -12.31199 | 16.27948 | 33124 ft | 517 kts | 171° |
| 2026-04-27 06:14 | -12.38312 | 16.28729 | 33126 ft | 517 kts | 171° |
| 2026-04-27 06:14 | -12.45463 | 16.29514 | 33126 ft | 517 kts | 171° |
| 2026-04-27 06:15 | -12.52612 | 16.30298 | 33129 ft | 517 kts | 171° |
| 2026-04-27 06:15 | -12.59770 | 16.31082 | 33130 ft | 517 kts | 171° |
| 2026-04-27 06:16 | -12.66881 | 16.31862 | 33133 ft | 518 kts | 172° |
| 2026-04-27 06:16 | -12.74052 | 16.32649 | 33133 ft | 519 kts | 172° |
| 2026-04-27 06:17 | -12.81224 | 16.33436 | 33133 ft | 519 kts | 171° |
| 2026-04-27 06:17 | -12.88409 | 16.34225 | 33132 ft | 519 kts | 171° |
| 2026-04-27 06:18 | -12.95534 | 16.35008 | 33133 ft | 518 kts | 171° |
| 2026-04-27 06:18 | -13.02700 | 16.35796 | 33132 ft | 518 kts | 172° |
| 2026-04-27 06:19 | -13.09863 | 16.36585 | 33133 ft | 518 kts | 172° |
| 2026-04-27 06:19 | -13.17028 | 16.37374 | 33132 ft | 518 kts | 172° |
| 2026-04-27 06:20 | -13.24140 | 16.38158 | 33133 ft | 518 kts | 172° |
| 2026-04-27 06:20 | -13.31308 | 16.38949 | 33130 ft | 518 kts | 172° |
| 2026-04-27 06:21 | -13.38478 | 16.39718 | 33132 ft | 519 kts | 172° |
| 2026-04-27 06:21 | -13.45662 | 16.40509 | 33131 ft | 519 kts | 172° |
| 2026-04-27 06:22 | -13.52798 | 16.41313 | 33132 ft | 519 kts | 172° |
| 2026-04-27 06:22 | -13.59985 | 16.42115 | 33132 ft | 519 kts | 172° |
| 2026-04-27 06:23 | -13.67167 | 16.42912 | 33133 ft | 519 kts | 172° |
| 2026-04-27 06:23 | -13.74362 | 16.43677 | 33134 ft | 520 kts | 172° |
| 2026-04-27 06:24 | -13.81510 | 16.44471 | 33135 ft | 520 kts | 172° |
| 2026-04-27 06:24 | -13.88708 | 16.45285 | 33135 ft | 520 kts | 172° |
| 2026-04-27 06:25 | -13.95903 | 16.46092 | 33134 ft | 520 kts | 172° |
| 2026-04-27 06:25 | -14.03105 | 16.46898 | 33136 ft | 520 kts | 172° |
| 2026-04-27 06:26 | -14.10263 | 16.47700 | 33134 ft | 521 kts | 172° |
| 2026-04-27 06:26 | -14.17483 | 16.48493 | 33133 ft | 521 kts | 172° |
| 2026-04-27 06:27 | -14.24698 | 16.49290 | 33138 ft | 522 kts | 172° |
| 2026-04-27 06:27 | -14.31915 | 16.50091 | 33137 ft | 521 kts | 172° |
| 2026-04-27 06:28 | -14.39080 | 16.50884 | 33136 ft | 522 kts | 173° |
| 2026-04-27 06:28 | -14.46306 | 16.51701 | 33135 ft | 522 kts | 173° |
| 2026-04-27 06:29 | -14.53529 | 16.52505 | 33138 ft | 522 kts | 173° |
| 2026-04-27 06:29 | -14.60755 | 16.53307 | 33138 ft | 522 kts | 173° |
| 2026-04-27 06:30 | -14.67939 | 16.54107 | 33134 ft | 522 kts | 173° |
| 2026-04-27 06:30 | -14.74903 | 16.54884 | 33134 ft | 522 kts | 173° |
| 2026-04-27 06:31 | -14.82123 | 16.55691 | 33131 ft | 522 kts | 173° |
| 2026-04-27 06:31 | -14.89248 | 16.56487 | 33132 ft | 522 kts | 173° |
| 2026-04-27 06:32 | -14.96472 | 16.57295 | 33133 ft | 522 kts | 173° |
| 2026-04-27 06:32 | -15.03652 | 16.58099 | 33128 ft | 522 kts | 173° |
| 2026-04-27 06:33 | -15.10878 | 16.58894 | 33133 ft | 522 kts | 173° |
| 2026-04-27 06:33 | -15.18105 | 16.59714 | 33132 ft | 522 kts | 173° |
| 2026-04-27 06:34 | -15.25334 | 16.60538 | 33132 ft | 523 kts | 173° |
| 2026-04-27 06:34 | -15.32515 | 16.61362 | 33129 ft | 523 kts | 173° |
| 2026-04-27 06:35 | -15.39739 | 16.62191 | 33132 ft | 523 kts | 173° |
| 2026-04-27 06:35 | -15.46981 | 16.63005 | 33132 ft | 523 kts | 173° |
| 2026-04-27 06:36 | -15.54219 | 16.63838 | 33129 ft | 523 kts | 173° |
| 2026-04-27 06:36 | -15.61430 | 16.64670 | 33130 ft | 524 kts | 173° |
| 2026-04-27 06:37 | -15.68687 | 16.65504 | 33128 ft | 523 kts | 173° |
| 2026-04-27 06:37 | -15.75878 | 16.66317 | 33130 ft | 524 kts | 173° |
| 2026-04-27 06:38 | -15.83129 | 16.67152 | 33129 ft | 524 kts | 173° |
| 2026-04-27 06:38 | -15.90382 | 16.67991 | 33129 ft | 524 kts | 173° |
| 2026-04-27 06:39 | -15.97583 | 16.68821 | 33127 ft | 524 kts | 173° |
| 2026-04-27 06:39 | -16.04837 | 16.69656 | 33127 ft | 524 kts | 173° |
| 2026-04-27 06:40 | -16.12086 | 16.70490 | 33127 ft | 524 kts | 173° |
| 2026-04-27 06:40 | -16.19335 | 16.71325 | 33127 ft | 524 kts | 173° |
| 2026-04-27 06:41 | -16.26582 | 16.72160 | 33129 ft | 524 kts | 173° |
| 2026-04-27 06:41 | -16.33782 | 16.72991 | 33130 ft | 524 kts | 173° |
| 2026-04-27 06:42 | -16.41025 | 16.73823 | 33130 ft | 524 kts | 174° |
| 2026-04-27 06:42 | -16.48274 | 16.74661 | 33130 ft | 524 kts | 174° |
| 2026-04-27 06:43 | -16.54296 | 16.75359 | 33126 ft | 524 kts | 174° |
| 2026-04-27 06:43 | -16.62715 | 16.76335 | 33130 ft | 524 kts | 174° |
| 2026-04-27 06:44 | -16.69959 | 16.77174 | 33125 ft | 524 kts | 174° |
| 2026-04-27 06:44 | -16.75984 | 16.77842 | 33127 ft | 524 kts | 174° |
| 2026-04-27 06:45 | -16.83231 | 16.78672 | 33125 ft | 524 kts | 174° |
| 2026-04-27 06:45 | -16.91642 | 16.79675 | 33125 ft | 524 kts | 174° |
| 2026-04-27 06:46 | -16.97664 | 16.80386 | 33131 ft | 524 kts | 174° |
| 2026-04-27 06:46 | -17.04905 | 16.81226 | 33130 ft | 524 kts | 175° |
| 2026-04-27 06:47 | -17.13328 | 16.82201 | 33130 ft | 524 kts | 174° |
| 2026-04-27 06:47 | -17.20575 | 16.83044 | 33130 ft | 524 kts | 174° |
| 2026-04-27 06:48 | -17.26609 | 16.83752 | 33133 ft | 524 kts | 174° |
| 2026-04-27 06:48 | -17.33854 | 16.84600 | 33138 ft | 524 kts | 174° |
| 2026-04-27 06:49 | -17.41099 | 16.85439 | 33130 ft | 524 kts | 175° |
| 2026-04-27 06:49 | -17.48299 | 16.86273 | 33137 ft | 524 kts | 175° |
| 2026-04-27 06:50 | -17.55546 | 16.87113 | 33135 ft | 524 kts | 175° |
| 2026-04-27 06:50 | -17.62793 | 16.87953 | 33138 ft | 524 kts | 175° |
| 2026-04-27 06:51 | -17.70044 | 16.88793 | 33147 ft | 524 kts | 175° |
| 2026-04-27 06:51 | -17.77236 | 16.89623 | 33144 ft | 523 kts | 175° |
| 2026-04-27 06:52 | -17.84475 | 16.90464 | 33143 ft | 523 kts | 175° |
| 2026-04-27 06:52 | -17.91713 | 16.91306 | 33144 ft | 523 kts | 175° |
| 2026-04-27 06:53 | -17.98955 | 16.92149 | 33146 ft | 523 kts | 175° |
| 2026-04-27 06:53 | -18.06144 | 16.92985 | 33146 ft | 523 kts | 175° |
| 2026-04-27 06:54 | -18.13380 | 16.93828 | 33146 ft | 523 kts | 175° |
| 2026-04-27 06:54 | -18.20618 | 16.94671 | 33145 ft | 523 kts | 175° |
| 2026-04-27 06:55 | -18.27857 | 16.95515 | 33150 ft | 523 kts | 175° |
| 2026-04-27 06:55 | -18.35092 | 16.96359 | 33148 ft | 523 kts | 175° |
| 2026-04-27 06:56 | -18.42282 | 16.97200 | 33147 ft | 523 kts | 175° |
| 2026-04-27 06:56 | -18.49514 | 16.98045 | 33152 ft | 523 kts | 175° |
| 2026-04-27 06:57 | -18.56748 | 16.98891 | 33152 ft | 523 kts | 175° |
| 2026-04-27 06:57 | -18.63977 | 16.99738 | 33150 ft | 523 kts | 175° |
| 2026-04-27 06:58 | -18.74770 | 17.01004 | 33154 ft | 522 kts | 175° |
| 2026-04-27 06:59 | -18.81982 | 17.01850 | 33151 ft | 522 kts | 175° |
| 2026-04-27 06:59 | -18.89196 | 17.02698 | 33152 ft | 522 kts | 175° |
| 2026-04-27 07:00 | -18.96410 | 17.03546 | 33148 ft | 522 kts | 175° |
| 2026-04-27 07:00 | -19.03576 | 17.04389 | 33153 ft | 521 kts | 176° |
| 2026-04-27 07:01 | -19.10781 | 17.05238 | 33152 ft | 521 kts | 176° |
| 2026-04-27 07:01 | -19.17984 | 17.06086 | 33145 ft | 521 kts | 176° |
| 2026-04-27 07:02 | -19.25188 | 17.06959 | 33149 ft | 521 kts | 175° |
| 2026-04-27 07:02 | -19.32341 | 17.07840 | 33154 ft | 521 kts | 176° |
| 2026-04-27 07:03 | -19.39542 | 17.08723 | 33145 ft | 520 kts | 176° |
| 2026-04-27 07:03 | -19.46730 | 17.09602 | 33145 ft | 520 kts | 176° |
| 2026-04-27 07:04 | -19.53870 | 17.10474 | 33147 ft | 520 kts | 176° |
| 2026-04-27 07:04 | -19.61058 | 17.11353 | 33145 ft | 520 kts | 176° |
| 2026-04-27 07:05 | -19.68253 | 17.12233 | 33148 ft | 520 kts | 176° |
| 2026-04-27 07:05 | -19.75438 | 17.13114 | 33150 ft | 520 kts | 176° |
| 2026-04-27 07:06 | -19.82624 | 17.13995 | 33153 ft | 520 kts | 176° |
| 2026-04-27 07:06 | -19.89761 | 17.14871 | 33155 ft | 520 kts | 176° |
| 2026-04-27 07:07 | -19.96948 | 17.15755 | 33164 ft | 520 kts | 176° |
| 2026-04-27 07:07 | -20.04136 | 17.16639 | 33156 ft | 520 kts | 176° |
| 2026-04-27 07:08 | -20.11328 | 17.17524 | 33159 ft | 520 kts | 176° |
| 2026-04-27 07:08 | -20.18470 | 17.18404 | 33161 ft | 520 kts | 176° |
| 2026-04-27 07:09 | -20.25664 | 17.19291 | 33162 ft | 520 kts | 176° |
| 2026-04-27 07:09 | -20.32856 | 17.20179 | 33165 ft | 521 kts | 176° |
| 2026-04-27 07:10 | -20.40059 | 17.21069 | 33169 ft | 521 kts | 176° |
| 2026-04-27 07:10 | -20.47216 | 17.21954 | 33167 ft | 521 kts | 176° |
| 2026-04-27 07:11 | -20.54420 | 17.22846 | 33166 ft | 521 kts | 176° |
| 2026-04-27 07:11 | -20.61627 | 17.23739 | 33171 ft | 521 kts | 176° |
| 2026-04-27 07:12 | -20.68836 | 17.24633 | 33173 ft | 522 kts | 176° |
| 2026-04-27 07:12 | -20.76056 | 17.25529 | 33173 ft | 522 kts | 176° |
| 2026-04-27 07:13 | -20.83226 | 17.26422 | 33172 ft | 522 kts | 176° |
| 2026-04-27 07:13 | -20.90442 | 17.27321 | 33173 ft | 522 kts | 176° |
| 2026-04-27 07:14 | -20.97663 | 17.28215 | 33173 ft | 523 kts | 176° |
| 2026-04-27 07:14 | -21.04894 | 17.29111 | 33173 ft | 523 kts | 176° |
| 2026-04-27 07:15 | -21.12073 | 17.30004 | 33171 ft | 523 kts | 176° |
| 2026-04-27 07:15 | -21.19301 | 17.30905 | 33173 ft | 523 kts | 176° |
| 2026-04-27 07:16 | -21.26530 | 17.31806 | 33175 ft | 523 kts | 176° |
| 2026-04-27 07:16 | -21.33763 | 17.32709 | 33173 ft | 523 kts | 176° |
| 2026-04-27 07:17 | -21.40942 | 17.33606 | 33173 ft | 523 kts | 176° |
| 2026-04-27 07:17 | -21.48174 | 17.34510 | 33173 ft | 523 kts | 176° |
| 2026-04-27 07:18 | -21.55403 | 17.35415 | 33177 ft | 523 kts | 177° |
| 2026-04-27 07:18 | -21.62641 | 17.36322 | 33176 ft | 524 kts | 177° |
| 2026-04-27 07:19 | -21.69836 | 17.37224 | 33173 ft | 524 kts | 177° |
| 2026-04-27 07:19 | -21.76666 | 17.38082 | 33176 ft | 524 kts | 177° |
| 2026-04-27 07:20 | -21.84068 | 17.39012 | 33183 ft | 524 kts | 177° |
| 2026-04-27 07:20 | -21.91262 | 17.39918 | 33178 ft | 524 kts | 177° |
| 2026-04-27 07:21 | -21.98505 | 17.40830 | 33183 ft | 523 kts | 177° |
| 2026-04-27 07:21 | -22.05737 | 17.41742 | 33186 ft | 523 kts | 177° |
| 2026-04-27 07:22 | -22.12970 | 17.42654 | 33186 ft | 523 kts | 177° |
| 2026-04-27 07:22 | -22.20155 | 17.43562 | 33190 ft | 523 kts | 178° |
| 2026-04-27 07:23 | -22.27384 | 17.44476 | 33191 ft | 523 kts | 178° |
| 2026-04-27 07:23 | -22.34618 | 17.45392 | 33192 ft | 523 kts | 178° |
| 2026-04-27 07:24 | -22.41850 | 17.46308 | 33195 ft | 523 kts | 178° |
| 2026-04-27 07:24 | -22.49088 | 17.47229 | 33200 ft | 524 kts | 178° |
| 2026-04-27 07:25 | -22.56274 | 17.48348 | 33197 ft | 526 kts | 175° |
| 2026-04-27 07:25 | -22.63506 | 17.49594 | 33197 ft | 526 kts | 175° |
| 2026-04-27 07:26 | -22.70736 | 17.50817 | 33192 ft | 526 kts | 176° |
| 2026-04-27 07:26 | -22.77979 | 17.52014 | 33208 ft | 526 kts | 176° |
| 2026-04-27 07:27 | -22.85183 | 17.53197 | 33193 ft | 528 kts | 176° |
| 2026-04-27 07:27 | -22.92449 | 17.54390 | 33191 ft | 528 kts | 176° |
| 2026-04-27 07:28 | -22.99720 | 17.55586 | 33190 ft | 528 kts | 176° |
| 2026-04-27 07:28 | -23.06990 | 17.56786 | 33208 ft | 528 kts | 176° |
| 2026-04-27 07:29 | -23.14225 | 17.57980 | 33188 ft | 530 kts | 176° |
| 2026-04-27 07:29 | -23.21521 | 17.59185 | 33187 ft | 531 kts | 176° |
| 2026-04-27 07:30 | -23.28819 | 17.60388 | 33191 ft | 530 kts | 176° |
| 2026-04-27 07:30 | -23.36122 | 17.61589 | 33190 ft | 531 kts | 176° |
| 2026-04-27 07:31 | -23.43382 | 17.62784 | 33193 ft | 532 kts | 177° |
| 2026-04-27 07:31 | -23.50709 | 17.63991 | 33199 ft | 533 kts | 177° |
| 2026-04-27 07:32 | -23.58036 | 17.65198 | 33195 ft | 533 kts | 177° |
| 2026-04-27 07:32 | -23.65365 | 17.66402 | 33204 ft | 533 kts | 177° |
| 2026-04-27 07:33 | -23.72648 | 17.67596 | 33200 ft | 533 kts | 178° |
| 2026-04-27 07:33 | -23.80007 | 17.68794 | 33204 ft | 535 kts | 178° |
| 2026-04-27 07:34 | -23.87362 | 17.70004 | 33218 ft | 535 kts | 178° |
| 2026-04-27 07:34 | -23.94719 | 17.71204 | 33217 ft | 534 kts | 178° |
| 2026-04-27 07:35 | -24.02025 | 17.72394 | 33217 ft | 534 kts | 178° |
| 2026-04-27 07:35 | -24.09387 | 17.73594 | 33223 ft | 535 kts | 178° |
| 2026-04-27 07:36 | -24.16746 | 17.74796 | 33211 ft | 535 kts | 178° |
| 2026-04-27 07:36 | -24.24096 | 17.75999 | 33226 ft | 534 kts | 178° |
| 2026-04-27 07:37 | -24.31399 | 17.77195 | 33228 ft | 534 kts | 178° |
| 2026-04-27 07:37 | -24.38748 | 17.78400 | 33229 ft | 534 kts | 178° |
| 2026-04-27 07:38 | -24.46097 | 17.79607 | 33232 ft | 534 kts | 178° |
| 2026-04-27 07:38 | -24.53451 | 17.80815 | 33235 ft | 534 kts | 178° |
| 2026-04-27 07:39 | -24.60748 | 17.81985 | 33242 ft | 533 kts | 179° |
| 2026-04-27 07:39 | -24.68096 | 17.83157 | 33242 ft | 534 kts | 179° |
| 2026-04-27 07:40 | -24.75440 | 17.84335 | 33234 ft | 534 kts | 179° |
| 2026-04-27 07:40 | -24.82790 | 17.85518 | 33236 ft | 534 kts | 179° |
| 2026-04-27 07:41 | -24.90095 | 17.86699 | 33244 ft | 534 kts | 179° |
| 2026-04-27 07:41 | -24.97448 | 17.87887 | 33250 ft | 535 kts | 179° |
| 2026-04-27 07:42 | -25.04813 | 17.89082 | 33245 ft | 535 kts | 179° |
| 2026-04-27 07:42 | -25.12179 | 17.90287 | 33248 ft | 535 kts | 179° |
| 2026-04-27 07:43 | -25.19489 | 17.91483 | 33248 ft | 535 kts | 179° |
| 2026-04-27 07:43 | -25.26858 | 17.92691 | 33249 ft | 535 kts | 179° |
| 2026-04-27 07:44 | -25.34222 | 17.93899 | 33253 ft | 535 kts | 179° |
| 2026-04-27 07:44 | -25.41595 | 17.95111 | 33254 ft | 535 kts | 179° |
| 2026-04-27 07:45 | -25.48910 | 17.96314 | 33252 ft | 535 kts | 180° |
| 2026-04-27 07:45 | -25.56282 | 17.97529 | 33256 ft | 535 kts | 180° |
| 2026-04-27 07:46 | -25.63649 | 17.98745 | 33253 ft | 535 kts | 180° |
| 2026-04-27 07:46 | -25.71018 | 17.99961 | 33251 ft | 535 kts | 180° |
| 2026-04-27 07:47 | -25.78390 | 18.01180 | 33254 ft | 535 kts | 180° |
| 2026-04-27 07:47 | -25.85700 | 18.02391 | 33257 ft | 535 kts | 180° |
| 2026-04-27 07:48 | -25.93062 | 18.03610 | 33255 ft | 535 kts | 180° |
| 2026-04-27 07:48 | -26.00434 | 18.04832 | 33255 ft | 535 kts | 180° |
| 2026-04-27 07:49 | -26.07801 | 18.06056 | 33253 ft | 535 kts | 180° |
| 2026-04-27 07:49 | -26.15116 | 18.07273 | 33258 ft | 535 kts | 180° |
| 2026-04-27 07:50 | -26.22478 | 18.08499 | 33253 ft | 535 kts | 180° |
| 2026-04-27 07:50 | -26.29844 | 18.09728 | 33252 ft | 535 kts | 180° |
| 2026-04-27 07:51 | -26.37215 | 18.10958 | 33256 ft | 536 kts | 181° |
| 2026-04-27 07:51 | -26.44548 | 18.12184 | 33241 ft | 536 kts | 181° |
| 2026-04-27 07:52 | -26.51923 | 18.13419 | 33242 ft | 536 kts | 181° |
| 2026-04-27 07:52 | -26.59045 | 18.14614 | 33278 ft | 536 kts | 181° |
| 2026-04-27 07:53 | -26.66387 | 18.15847 | 33250 ft | 537 kts | 181° |
| 2026-04-27 07:53 | -26.73777 | 18.17089 | 33251 ft | 537 kts | 181° |
| 2026-04-27 07:54 | -26.81163 | 18.18332 | 33252 ft | 537 kts | 181° |
| 2026-04-27 07:54 | -26.88554 | 18.19577 | 33274 ft | 537 kts | 182° |
| 2026-04-27 07:55 | -26.95932 | 18.20823 | 33247 ft | 535 kts | 182° |
| 2026-04-27 07:55 | -27.03242 | 18.22058 | 33256 ft | 535 kts | 182° |
| 2026-04-27 07:56 | -27.10608 | 18.23299 | 33253 ft | 535 kts | 182° |
| 2026-04-27 07:56 | -27.17972 | 18.24548 | 33251 ft | 535 kts | 182° |
| 2026-04-27 07:57 | -27.25339 | 18.25800 | 33252 ft | 535 kts | 181° |
| 2026-04-27 07:57 | -27.32660 | 18.27044 | 33258 ft | 535 kts | 182° |
| 2026-04-27 07:58 | -27.40021 | 18.28296 | 33259 ft | 535 kts | 182° |
| 2026-04-27 07:58 | -27.47384 | 18.29553 | 33260 ft | 533 kts | 182° |
| 2026-04-27 07:59 | -27.54709 | 18.30652 | 33263 ft | 526 kts | 186° |
| 2026-04-27 07:59 | -27.65548 | 18.31386 | 33264 ft | 522 kts | 188° |
| 2026-04-27 08:00 | -27.72808 | 18.31879 | 33298 ft | 522 kts | 187° |
| 2026-04-27 08:00 | -27.80050 | 18.32452 | 33286 ft | 522 kts | 187° |
| 2026-04-27 08:01 | -27.87238 | 18.33047 | 33283 ft | 521 kts | 187° |
| 2026-04-27 08:01 | -27.94468 | 18.33650 | 33285 ft | 521 kts | 187° |
| 2026-04-27 08:02 | -28.01693 | 18.34240 | 33302 ft | 520 kts | 188° |
| 2026-04-27 08:02 | -28.08906 | 18.34829 | 33292 ft | 519 kts | 188° |
| 2026-04-27 08:03 | -28.16102 | 18.35854 | 33293 ft | 529 kts | 182° |
| 2026-04-27 08:03 | -28.23370 | 18.37321 | 33298 ft | 531 kts | 181° |
| 2026-04-27 08:04 | -28.30641 | 18.38863 | 33305 ft | 532 kts | 181° |
| 2026-04-27 08:04 | -28.37661 | 18.40352 | 33303 ft | 532 kts | 181° |
| 2026-04-27 08:05 | -28.44945 | 18.41890 | 33306 ft | 532 kts | 181° |
| 2026-04-27 08:05 | -28.52168 | 18.43407 | 33301 ft | 531 kts | 181° |
| 2026-04-27 08:06 | -28.59437 | 18.44938 | 33304 ft | 531 kts | 181° |
| 2026-04-27 08:06 | -28.66707 | 18.46471 | 33311 ft | 532 kts | 181° |
| 2026-04-27 08:07 | -28.73980 | 18.48008 | 33309 ft | 531 kts | 181° |
| 2026-04-27 08:07 | -28.81202 | 18.49534 | 33311 ft | 531 kts | 181° |
| 2026-04-27 08:08 | -28.88477 | 18.51076 | 33323 ft | 532 kts | 182° |
| 2026-04-27 08:08 | -28.95755 | 18.52621 | 33316 ft | 532 kts | 182° |
| 2026-04-27 08:09 | -29.03036 | 18.54167 | 33314 ft | 532 kts | 182° |
| 2026-04-27 08:09 | -29.10270 | 18.55707 | 33346 ft | 532 kts | 182° |
| 2026-04-27 08:10 | -29.17542 | 18.57258 | 33315 ft | 531 kts | 182° |
| 2026-04-27 08:10 | -29.24808 | 18.58808 | 33318 ft | 531 kts | 182° |
| 2026-04-27 08:11 | -29.32081 | 18.60361 | 33325 ft | 531 kts | 182° |
| 2026-04-27 08:11 | -29.39298 | 18.61905 | 33323 ft | 531 kts | 183° |
| 2026-04-27 08:12 | -29.46563 | 18.63462 | 33329 ft | 531 kts | 183° |
| 2026-04-27 08:12 | -29.53829 | 18.65022 | 33334 ft | 531 kts | 183° |
| 2026-04-27 08:13 | -29.61092 | 18.66583 | 33323 ft | 531 kts | 183° |
| 2026-04-27 08:13 | -29.68309 | 18.68137 | 33329 ft | 531 kts | 183° |
| 2026-04-27 08:14 | -29.75571 | 18.69701 | 33326 ft | 531 kts | 183° |
| 2026-04-27 08:14 | -29.82840 | 18.71270 | 33329 ft | 531 kts | 183° |
| 2026-04-27 08:15 | -29.90106 | 18.72841 | 33334 ft | 531 kts | 183° |
| 2026-04-27 08:15 | -29.97323 | 18.74404 | 33332 ft | 531 kts | 183° |
| 2026-04-27 08:16 | -30.04591 | 18.75980 | 33340 ft | 531 kts | 183° |
| 2026-04-27 08:16 | -30.11860 | 18.77559 | 33339 ft | 531 kts | 183° |
| 2026-04-27 08:17 | -30.19123 | 18.79140 | 33336 ft | 530 kts | 184° |
| 2026-04-27 08:17 | -30.26316 | 18.80708 | 33338 ft | 529 kts | 184° |
| 2026-04-27 08:18 | -30.33556 | 18.82285 | 33338 ft | 529 kts | 184° |
| 2026-04-27 08:18 | -30.40786 | 18.83864 | 33381 ft | 529 kts | 184° |
| 2026-04-27 08:19 | -30.48018 | 18.85448 | 33335 ft | 528 kts | 184° |
| 2026-04-27 08:19 | -30.55187 | 18.87020 | 33334 ft | 528 kts | 184° |
| 2026-04-27 08:20 | -30.62401 | 18.88605 | 33339 ft | 528 kts | 184° |
| 2026-04-27 08:20 | -30.69611 | 18.90187 | 33352 ft | 526 kts | 184° |
| 2026-04-27 08:21 | -30.76804 | 18.91770 | 33344 ft | 525 kts | 184° |
| 2026-04-27 08:21 | -30.83932 | 18.93341 | 33343 ft | 525 kts | 184° |
| 2026-04-27 08:22 | -30.91107 | 18.94923 | 33343 ft | 525 kts | 184° |
| 2026-04-27 08:22 | -30.98268 | 18.96510 | 33341 ft | 523 kts | 185° |
| 2026-04-27 08:23 | -31.05417 | 18.98095 | 33341 ft | 522 kts | 185° |
| 2026-04-27 08:23 | -31.12555 | 18.99678 | 33340 ft | 522 kts | 184° |
| 2026-04-27 08:24 | -31.19643 | 19.01244 | 33353 ft | 522 kts | 185° |
| 2026-04-27 08:24 | -31.26754 | 19.02831 | 33338 ft | 520 kts | 185° |
| 2026-04-27 08:25 | -31.33858 | 19.04416 | 33335 ft | 519 kts | 185° |
| 2026-04-27 08:25 | -31.40713 | 19.05945 | 33336 ft | 519 kts | 185° |
| 2026-04-27 08:26 | -31.47762 | 19.07520 | 33338 ft | 518 kts | 185° |
| 2026-04-27 08:26 | -31.54837 | 19.09105 | 33331 ft | 517 kts | 185° |
| 2026-04-27 08:27 | -31.61902 | 19.10688 | 33332 ft | 517 kts | 185° |
| 2026-04-27 08:27 | -31.68917 | 19.12262 | 33382 ft | 517 kts | 185° |
| 2026-04-27 08:28 | -31.75973 | 19.13850 | 33335 ft | 515 kts | 185° |
| 2026-04-27 08:28 | -31.83010 | 19.15435 | 33324 ft | 515 kts | 185° |
| 2026-04-27 08:29 | -31.90044 | 19.17022 | 33334 ft | 514 kts | 185° |
| 2026-04-27 08:29 | -31.97026 | 19.18598 | 33334 ft | 515 kts | 185° |
| 2026-04-27 08:30 | -32.04042 | 19.20149 | 33321 ft | 513 kts | 185° |
| 2026-04-27 08:30 | -32.11063 | 19.21744 | 33331 ft | 515 kts | 185° |
| 2026-04-27 08:31 | -32.18093 | 19.23362 | 33328 ft | 515 kts | 185° |
| 2026-04-27 08:31 | -32.21590 | 19.24173 | 33130 ft | 510 kts | 185° |
| 2026-04-27 08:31 | -32.25034 | 19.24973 | 32524 ft | 508 kts | 184° |
| 2026-04-27 08:32 | -32.28450 | 19.25753 | 31979 ft | 503 kts | 184° |
| 2026-04-27 08:32 | -32.31824 | 19.26523 | 31508 ft | 498 kts | 184° |
| 2026-04-27 08:32 | -32.35201 | 19.27294 | 31043 ft | 493 kts | 184° |
| 2026-04-27 08:32 | -32.38549 | 19.28058 | 30584 ft | 487 kts | 184° |
| 2026-04-27 08:33 | -32.41865 | 19.28811 | 30111 ft | 483 kts | 184° |
| 2026-04-27 08:33 | -32.45150 | 19.29559 | 29534 ft | 479 kts | 183° |
| 2026-04-27 08:33 | -32.48412 | 19.30302 | 28829 ft | 477 kts | 183° |
| 2026-04-27 08:33 | -32.51656 | 19.31040 | 28337 ft | 472 kts | 182° |
| 2026-04-27 08:34 | -32.54845 | 19.31776 | 28022 ft | 462 kts | 182° |
| 2026-04-27 08:34 | -32.57977 | 19.32500 | 27611 ft | 456 kts | 182° |
| 2026-04-27 08:34 | -32.61067 | 19.33211 | 27136 ft | 451 kts | 182° |
| 2026-04-27 08:34 | -32.64102 | 19.33904 | 26622 ft | 449 kts | 181° |
| 2026-04-27 08:35 | -32.67160 | 19.34603 | 26102 ft | 446 kts | 181° |
| 2026-04-27 08:35 | -32.70189 | 19.35297 | 25687 ft | 442 kts | 180° |
| 2026-04-27 08:35 | -32.73205 | 19.35985 | 25242 ft | 440 kts | 180° |
| 2026-04-27 08:35 | -32.76196 | 19.36668 | 24744 ft | 437 kts | 179° |
| 2026-04-27 08:36 | -32.79172 | 19.37348 | 24269 ft | 434 kts | 179° |
| 2026-04-27 08:36 | -32.82121 | 19.38018 | 23858 ft | 430 kts | 179° |
| 2026-04-27 08:36 | -32.85059 | 19.38537 | 23359 ft | 423 kts | 182° |
| 2026-04-27 08:36 | -32.87933 | 19.38914 | 22892 ft | 419 kts | 184° |
| 2026-04-27 08:37 | -32.90816 | 19.39246 | 22389 ft | 415 kts | 184° |
| 2026-04-27 08:37 | -32.93682 | 19.39574 | 21943 ft | 412 kts | 183° |
| 2026-04-27 08:37 | -32.96523 | 19.39915 | 21508 ft | 408 kts | 183° |
| 2026-04-27 08:37 | -32.99353 | 19.40272 | 21019 ft | 405 kts | 182° |
| 2026-04-27 08:38 | -33.02113 | 19.40636 | 20568 ft | 403 kts | 182° |
| 2026-04-27 08:38 | -33.04883 | 19.41012 | 20094 ft | 399 kts | 181° |
| 2026-04-27 08:38 | -33.07626 | 19.41390 | 19635 ft | 397 kts | 181° |
| 2026-04-27 08:38 | -33.10368 | 19.41767 | 19173 ft | 395 kts | 181° |
| 2026-04-27 08:39 | -33.13084 | 19.42142 | 18753 ft | 392 kts | 181° |
| 2026-04-27 08:39 | -33.15781 | 19.42514 | 18253 ft | 389 kts | 181° |
| 2026-04-27 08:39 | -33.18459 | 19.42883 | 17791 ft | 386 kts | 181° |
| 2026-04-27 08:39 | -33.21104 | 19.43051 | 17336 ft | 374 kts | 190° |
| 2026-04-27 08:40 | -33.23623 | 19.42593 | 16837 ft | 361 kts | 202° |
| 2026-04-27 08:40 | -33.25892 | 19.41449 | 16331 ft | 349 kts | 216° |
| 2026-04-27 08:40 | -33.27734 | 19.39720 | 16074 ft | 334 kts | 230° |
| 2026-04-27 08:40 | -33.29214 | 19.37659 | 15913 ft | 321 kts | 235° |
| 2026-04-27 08:41 | -33.30565 | 19.35582 | 15746 ft | 312 kts | 236° |
| 2026-04-27 08:41 | -33.31866 | 19.33554 | 15594 ft | 303 kts | 236° |
| 2026-04-27 08:41 | -33.33135 | 19.31576 | 15449 ft | 296 kts | 236° |
| 2026-04-27 08:41 | -33.34369 | 19.29653 | 15315 ft | 288 kts | 236° |
| 2026-04-27 08:42 | -33.35577 | 19.27770 | 15091 ft | 284 kts | 236° |
| 2026-04-27 08:42 | -33.36772 | 19.25908 | 14897 ft | 280 kts | 235° |
| 2026-04-27 08:42 | -33.37936 | 19.24101 | 14742 ft | 277 kts | 236° |
| 2026-04-27 08:42 | -33.39109 | 19.22271 | 14463 ft | 277 kts | 236° |
| 2026-04-27 08:43 | -33.40280 | 19.20441 | 14185 ft | 277 kts | 236° |
| 2026-04-27 08:43 | -33.41514 | 19.18671 | 13875 ft | 278 kts | 229° |
| 2026-04-27 08:43 | -33.42928 | 19.17090 | 13551 ft | 279 kts | 225° |
| 2026-04-27 08:43 | -33.44388 | 19.15572 | 13248 ft | 277 kts | 224° |
| 2026-04-27 08:44 | -33.45849 | 19.14067 | 12894 ft | 277 kts | 224° |
| 2026-04-27 08:44 | -33.47303 | 19.12565 | 12649 ft | 275 kts | 224° |
| 2026-04-27 08:44 | -33.48743 | 19.11075 | 12351 ft | 274 kts | 224° |
| 2026-04-27 08:44 | -33.50167 | 19.09601 | 12054 ft | 274 kts | 223° |
| 2026-04-27 08:45 | -33.51604 | 19.08112 | 11823 ft | 272 kts | 223° |
| 2026-04-27 08:45 | -33.53029 | 19.06631 | 11558 ft | 270 kts | 222° |
| 2026-04-27 08:45 | -33.54446 | 19.05158 | 11274 ft | 269 kts | 222° |
| 2026-04-27 08:45 | -33.55859 | 19.03688 | 10985 ft | 268 kts | 221° |
| 2026-04-27 08:46 | -33.57267 | 19.02222 | 10705 ft | 267 kts | 221° |
| 2026-04-27 08:46 | -33.58668 | 19.00765 | 10409 ft | 266 kts | 221° |
| 2026-04-27 08:46 | -33.60049 | 18.99331 | 10132 ft | 266 kts | 220° |
| 2026-04-27 08:46 | -33.61385 | 18.97810 | 9765 ft | 266 kts | 231° |
| 2026-04-27 08:47 | -33.62137 | 18.95797 | 9426 ft | 269 kts | 258° |
| 2026-04-27 08:47 | -33.62026 | 18.93550 | 9079 ft | 276 kts | 283° |
| 2026-04-27 08:47 | -33.61277 | 18.91424 | 8752 ft | 277 kts | 292° |
| 2026-04-27 08:47 | -33.60395 | 18.89370 | 8457 ft | 277 kts | 294° |
| 2026-04-27 08:48 | -33.59503 | 18.87330 | 8139 ft | 276 kts | 294° |
| 2026-04-27 08:48 | -33.58615 | 18.85296 | 7817 ft | 275 kts | 294° |
| 2026-04-27 08:48 | -33.57751 | 18.83300 | 7463 ft | 273 kts | 293° |
| 2026-04-27 08:48 | -33.56881 | 18.81276 | 7126 ft | 272 kts | 294° |
| 2026-04-27 08:49 | -33.56015 | 18.79278 | 6842 ft | 269 kts | 294° |
| 2026-04-27 08:49 | -33.55155 | 18.77285 | 6474 ft | 269 kts | 294° |
| 2026-04-27 08:49 | -33.54301 | 18.75282 | 6122 ft | 269 kts | 294° |
| 2026-04-27 08:49 | -33.53452 | 18.73287 | 5769 ft | 269 kts | 294° |
| 2026-04-27 08:50 | -33.52599 | 18.71291 | 5407 ft | 269 kts | 294° |
| 2026-04-27 08:50 | -33.51748 | 18.69303 | 5076 ft | 268 kts | 294° |
| 2026-04-27 08:50 | -33.50901 | 18.67326 | 4760 ft | 266 kts | 294° |
| 2026-04-27 08:50 | -33.50051 | 18.65337 | 4426 ft | 265 kts | 294° |
| 2026-04-27 08:51 | -33.49229 | 18.63410 | 4077 ft | 265 kts | 294° |
| 2026-04-27 08:51 | -33.48393 | 18.61442 | 3804 ft | 265 kts | 294° |
| 2026-04-27 08:51 | -33.47689 | 18.59425 | 3420 ft | 262 kts | 282° |
| 2026-04-27 08:51 | -33.47518 | 18.57285 | 3084 ft | 256 kts | 261° |
| 2026-04-27 08:52 | -33.48063 | 18.55318 | 2982 ft | 246 kts | 235° |
| 2026-04-27 08:52 | -33.49234 | 18.53905 | 2977 ft | 244 kts | 210° |
| 2026-04-27 08:52 | -33.50820 | 18.53293 | 2984 ft | 237 kts | 184° |
| 2026-04-27 08:52 | -33.52386 | 18.53633 | 2970 ft | 226 kts | 157° |
| 2026-04-27 08:53 | -33.53604 | 18.54725 | 2973 ft | 214 kts | 138° |
| 2026-04-27 08:53 | -33.54857 | 18.55485 | 2963 ft | 197 kts | 179° |
| 2026-04-27 08:53 | -33.56121 | 18.55285 | 2973 ft | 179 kts | 190° |
| 2026-04-27 08:53 | -33.57272 | 18.55034 | 2988 ft | 158 kts | 190° |
| 2026-04-27 08:54 | -33.58338 | 18.54825 | 2981 ft | 154 kts | 189° |
| 2026-04-27 08:54 | -33.59392 | 18.54626 | 2976 ft | 153 kts | 189° |
| 2026-04-27 08:54 | -33.60446 | 18.54467 | 2978 ft | 153 kts | 182° |
| 2026-04-27 08:54 | -33.61502 | 18.54516 | 2970 ft | 148 kts | 178° |
| 2026-04-27 08:55 | -33.62500 | 18.54629 | 2963 ft | 145 kts | 175° |
| 2026-04-27 08:55 | -33.63497 | 18.54776 | 2980 ft | 144 kts | 174° |
| 2026-04-27 08:55 | -33.64490 | 18.54939 | 2980 ft | 144 kts | 174° |
| 2026-04-27 08:55 | -33.65486 | 18.55110 | 2974 ft | 145 kts | 173° |
| 2026-04-27 08:56 | -33.66487 | 18.55282 | 2971 ft | 145 kts | 173° |
| 2026-04-27 08:56 | -33.67484 | 18.55446 | 2975 ft | 145 kts | 173° |
| 2026-04-27 08:56 | -33.68486 | 18.55617 | 2968 ft | 145 kts | 173° |
| 2026-04-27 08:56 | -33.69472 | 18.55785 | 2970 ft | 145 kts | 174° |
| 2026-04-27 08:57 | -33.71478 | 18.56121 | 2965 ft | 145 kts | 174° |
| 2026-04-27 08:57 | -33.72466 | 18.56277 | 2974 ft | 145 kts | 174° |
| 2026-04-27 08:57 | -33.73466 | 18.56442 | 2974 ft | 145 kts | 174° |
| 2026-04-27 08:58 | -33.74467 | 18.56611 | 2975 ft | 145 kts | 174° |
| 2026-04-27 08:58 | -33.75468 | 18.56783 | 2980 ft | 145 kts | 174° |
| 2026-04-27 08:58 | -33.76471 | 18.56947 | 2984 ft | 145 kts | 177° |
| 2026-04-27 08:58 | -33.77477 | 18.56986 | 2982 ft | 145 kts | 181° |
| 2026-04-27 08:59 | -33.78482 | 18.56935 | 2986 ft | 144 kts | 186° |
| 2026-04-27 08:59 | -33.79478 | 18.56798 | 2987 ft | 144 kts | 189° |
| 2026-04-27 08:59 | -33.80454 | 18.56608 | 2983 ft | 144 kts | 190° |
| 2026-04-27 08:59 | -33.81440 | 18.56400 | 2993 ft | 144 kts | 191° |
| 2026-04-27 09:00 | -33.82427 | 18.56205 | 2988 ft | 144 kts | 189° |
| 2026-04-27 09:00 | -33.83432 | 18.56169 | 2930 ft | 147 kts | 176° |
| 2026-04-27 09:00 | -33.84440 | 18.56404 | 2723 ft | 147 kts | 169° |
| 2026-04-27 09:00 | -33.85424 | 18.56696 | 2494 ft | 145 kts | 169° |
| 2026-04-27 09:01 | -33.86402 | 18.56974 | 2291 ft | 145 kts | 170° |
| 2026-04-27 09:01 | -33.87378 | 18.57278 | 2090 ft | 145 kts | 168° |
| 2026-04-27 09:01 | -33.88341 | 18.57587 | 1860 ft | 144 kts | 168° |
| 2026-04-27 09:01 | -33.89273 | 18.57880 | 1667 ft | 143 kts | 168° |
| 2026-04-27 09:02 | -33.90236 | 18.58183 | 1455 ft | 143 kts | 168° |
| 2026-04-27 09:02 | -33.90981 | 18.58419 | 1301 ft | 143 kts | 167° |
| 2026-04-27 09:02 | -33.91945 | 18.58724 | 1086 ft | 142 kts | 166° |
| 2026-04-27 09:02 | -33.92902 | 18.59030 | 864 ft | 142 kts | 165° |
| 2026-04-27 09:03 | -33.93840 | 18.59326 | 675 ft | 141 kts | 164° |
| 2026-04-27 09:03 | -33.94782 | 18.59626 | 465 ft | 140 kts | 163° |
| 2026-04-27 09:03 | -33.95646 | 18.59900 | 291 ft | 139 kts | 163° |
| 2026-04-27 09:03 | -33.96566 | 18.60193 | 161 ft | 129 kts | 165° |
| 2026-04-27 09:04 | -33.97257 | 18.60417 | 157 ft | 79 kts | 164° |
| 2026-04-27 09:04 | -33.97617 | 18.60530 | 156 ft | 30 kts | 167° |
| 2026-04-27 09:04 | -33.97745 | 18.60561 | 158 ft | 15 kts | 176° |
| 2026-04-27 09:04 | -33.97788 | 18.60497 | 158 ft | 9 kts | 275° |
| 2026-04-27 09:05 | -33.97759 | 18.60369 | 158 ft | 19 kts | 285° |
| 2026-04-27 09:05 | -33.97722 | 18.60218 | 158 ft | 19 kts | 295° |
| 2026-04-27 09:05 | -33.97608 | 18.60143 | 158 ft | 19 kts | 340° |
| 2026-04-27 09:05 | -33.97479 | 18.60075 | 158 ft | 21 kts | 340° |
| 2026-04-27 09:06 | -33.97336 | 18.60029 | 158 ft | 22 kts | 345° |
| 2026-04-27 09:06 | -33.97224 | 18.59995 | 158 ft | 16 kts | 346° |
| 2026-04-27 09:06 | -33.97112 | 18.59964 | 158 ft | 17 kts | 354° |
| 2026-04-27 09:06 | -33.96994 | 18.59933 | 158 ft | 18 kts | 343° |
| 2026-04-27 09:07 | -33.96914 | 18.59905 | 158 ft | 6 kts | 344° |
| 2026-04-27 09:07 | -33.96885 | 18.59870 | 158 ft | 7 kts | 288° |
| 2026-04-27 09:07 | -33.96896 | 18.59826 | 158 ft | 7 kts | 251° |
| 2026-04-27 09:07 | -33.96902 | 18.59797 | 158 ft | 0 kts | 255° |